Another Hard Day at the Office Weather Stats

 
 
 

High monthly outside Temperature, 22.8 , C
Low monthly outside Temperature, -1.0 , C
High yearly outside Temperature, 30.9 , C
Low yearly outside Temperature, -2.2 , C

Low monthly barometer, 1001.1 , mb
High monthly barometer, 1028.0 , mb
Low yearly barometer, 975.0 , mb
High yearly barometer 1041.1 , mb

High wind speed, 25.0 , mph
Time of High wind speed, 21:37 , mph
High monthly wind speed, 47.0 , mph
High yearly wind speed, 55.0 , mph

 

 




3126
                    Temp     Hi    Low   Out    Dew  Wind  Wind   Wind    Hi    Hi   Wind   Heat    THW                Rain    Heat    Cool    In     In    In     In     In   In Air  Wind  Wind    ISS   Arc.
  Date    Time     Out   Temp   Temp   Hum    Pt. Speed   Dir    Run Speed   Dir  Chill  Index  Index   Bar    Rain  Rate    D-D     D-D    Temp   Hum    Dew   Heat    EMC Density  Samp   Tx   Recept  Int.
---------------------------------------------------------------------------------------------------------------------------------------------------------------------------------------------------------------
15/11/18   0:05   13.3   13.3   13.2    86   11.0   9.0   SSW   0.75  12.0     S   11.6   13.2   11.6  1019.8  0.00  0.00   0.018   0.000   24.0    50   12.9   24.1   9.25  .0736    114    1    100.0    5 
15/11/18   0:10   13.1   13.3   13.1    86   10.8  10.0    SW   0.83  12.0    SW   10.9   13.0   10.9  1019.8  0.00  0.00   0.018   0.000   24.0    50   12.9   24.1   9.25  .0736    117    1    100.0    5 
15/11/18   0:15   12.9   13.1   12.9    86   10.7   8.0   WSW   0.67  13.0   WSW   11.6   12.9   11.6  1019.7  0.00  0.00   0.019   0.000   24.0    50   12.9   24.1   9.25  .0736    116    1    100.0    5 
15/11/18   0:20   12.8   12.9   12.8    86   10.5   6.0   WSW   0.50   9.0   WSW   12.1   12.8   12.0  1019.8  0.00  0.00   0.019   0.000   24.0    50   12.9   24.1   9.25  .0736    117    1    100.0    5 
15/11/18   0:25   12.9   12.9   12.8    86   10.6   5.0   WSW   0.42   7.0   WSW   12.4   12.8   12.3  1019.7  0.00  0.00   0.019   0.000   24.0    50   12.9   24.1   9.25  .0736    116    1    100.0    5 
15/11/18   0:30   12.9   12.9   12.8    86   10.6   4.0   WSW   0.33   7.0   WSW   12.7   12.8   12.6  1019.8  0.00  0.00   0.019   0.000   24.0    50   12.9   24.1   9.25  .0736    117    1    100.0    5 
15/11/18   0:35   12.9   12.9   12.9    86   10.6   3.0   WSW   0.25   5.0   WSW   12.9   12.8   12.8  1019.7  0.00  0.00   0.019   0.000   23.9    50   12.9   24.0   9.25  .0736    115    1    100.0    5 
15/11/18   0:40   12.9   12.9   12.9    87   10.8   2.0   WSW   0.17   6.0   WSW   12.9   12.9   12.9  1019.7  0.00  0.00   0.019   0.000   23.9    50   12.9   24.0   9.25  .0736    118    1    100.0    5 
15/11/18   0:45   12.8   12.9   12.8    86   10.5   0.0   WSW   0.00   2.0   WSW   12.8   12.8   12.8  1019.7  0.00  0.00   0.019   0.000   23.9    50   12.9   24.0   9.25  .0736    117    1    100.0    5 
15/11/18   0:50   12.8   12.8   12.8    86   10.5   0.0   WSW   0.00   1.0   WSW   12.8   12.7   12.7  1019.6  0.00  0.00   0.019   0.000   23.9    50   12.9   24.0   9.25  .0736    117    1    100.0    5 
15/11/18   0:55   12.7   12.8   12.7    86   10.4   0.0   ---   0.00   0.0   ---   12.7   12.7   12.7  1019.6  0.00  0.00   0.019   0.000   23.9    50   12.8   23.9   9.25  .0736    116    1    100.0    5 
15/11/18   1:00   12.7   12.7   12.7    87   10.6   0.0   ---   0.00   0.0   ---   12.7   12.7   12.7  1019.6  0.00  0.00   0.019   0.000   23.9    50   12.8   23.9   9.25  .0736    116    1    100.0    5 
15/11/18   1:05   12.7   12.7   12.7    87   10.6   0.0   ---   0.00   0.0   ---   12.7   12.7   12.7  1019.6  0.00  0.00   0.020   0.000   23.9    50   12.8   23.9   9.25  .0736    117    1    100.0    5 
15/11/18   1:10   12.7   12.7   12.7    87   10.6   0.0   WSW   0.00   1.0   WSW   12.7   12.7   12.7  1019.6  0.00  0.00   0.020   0.000   23.9    50   12.8   23.9   9.25  .0736    115    1    100.0    5 
15/11/18   1:15   12.7   12.7   12.7    87   10.6   0.0   ---   0.00   0.0   ---   12.7   12.7   12.7  1019.7  0.00  0.00   0.020   0.000   23.9    50   12.8   23.9   9.25  .0736    117    1    100.0    5 
15/11/18   1:20   12.7   12.7   12.7    87   10.6   0.0   ---   0.00   0.0   ---   12.7   12.7   12.7  1019.7  0.00  0.00   0.020   0.000   23.9    50   12.8   23.9   9.25  .0736    115    1    100.0    5 
15/11/18   1:25   12.7   12.7   12.7    87   10.6   0.0   ---   0.00   0.0   ---   12.7   12.7   12.7  1019.7  0.00  0.00   0.020   0.000   23.9    50   12.8   23.9   9.25  .0736    117    1    100.0    5 
15/11/18   1:30   12.7   12.7   12.7    87   10.6   0.0   ---   0.00   0.0   ---   12.7   12.7   12.7  1019.7  0.00  0.00   0.020   0.000   23.8    50   12.8   23.9   9.25  .0736    116    1    100.0    5 
15/11/18   1:35   12.7   12.7   12.7    87   10.6   0.0   ---   0.00   0.0   ---   12.7   12.7   12.7  1019.7  0.00  0.00   0.019   0.000   23.8    50   12.8   23.9   9.25  .0736    116    1    100.0    5 
15/11/18   1:40   12.7   12.7   12.7    87   10.6   0.0   ---   0.00   0.0   ---   12.7   12.7   12.7  1019.6  0.00  0.00   0.019   0.000   23.8    50   12.8   23.9   9.25  .0736    117    1    100.0    5 
15/11/18   1:45   12.7   12.7   12.7    87   10.6   0.0   WSW   0.00   2.0   WSW   12.7   12.7   12.7  1019.7  0.00  0.00   0.020   0.000   23.8    50   12.8   23.9   9.25  .0736    118    1    100.0    5 
15/11/18   1:50   12.7   12.7   12.7    87   10.6   2.0   WSW   0.17   4.0   WSW   12.7   12.7   12.7  1019.6  0.00  0.00   0.020   0.000   23.8    50   12.8   23.9   9.25  .0736    117    1    100.0    5 
15/11/18   1:55   12.7   12.7   12.7    87   10.6   4.0   WSW   0.33   5.0   WSW   12.4   12.7   12.4  1019.6  0.00  0.00   0.020   0.000   23.8    50   12.8   23.9   9.25  .0736    117    1    100.0    5 
15/11/18   2:00   12.7   12.7   12.7    87   10.6   3.0   WSW   0.25   5.0   WSW   12.7   12.7   12.7  1019.6  0.00  0.00   0.020   0.000   23.8    50   12.8   23.9   9.25  .0736    116    1    100.0    5 
15/11/18   2:05   12.7   12.7   12.7    87   10.6   1.0   WSW   0.08   3.0   WSW   12.7   12.7   12.7  1019.5  0.00  0.00   0.020   0.000   23.8    50   12.8   23.9   9.25  .0736    115    1    100.0    5 
15/11/18   2:10   12.7   12.7   12.7    87   10.6   0.0   WSW   0.00   1.0   WSW   12.7   12.7   12.7  1019.4  0.00  0.00   0.020   0.000   23.8    50   12.7   23.8   9.25  .0736    117    1    100.0    5 
15/11/18   2:15   12.6   12.7   12.6    87   10.5   0.0   ---   0.00   0.0   ---   12.6   12.6   12.6  1019.4  0.00  0.00   0.020   0.000   23.8    50   12.7   23.8   9.25  .0736    117    1    100.0    5 
15/11/18   2:20   12.6   12.6   12.6    87   10.4   0.0   ---   0.00   0.0   ---   12.6   12.6   12.6  1019.4  0.00  0.00   0.020   0.000   23.8    50   12.7   23.8   9.25  .0736    116    1    100.0    5 
15/11/18   2:25   12.6   12.6   12.6    87   10.4   0.0   ---   0.00   0.0   ---   12.6   12.6   12.6  1019.4  0.00  0.00   0.020   0.000   23.8    50   12.7   23.8   9.25  .0736    117    1    100.0    5 
15/11/18   2:30   12.6   12.6   12.6    87   10.4   0.0   ---   0.00   0.0   ---   12.6   12.6   12.6  1019.3  0.00  0.00   0.020   0.000   23.8    50   12.7   23.8   9.25  .0736    116    1    100.0    5 
15/11/18   2:35   12.6   12.6   12.6    87   10.4   0.0   ---   0.00   0.0   ---   12.6   12.6   12.6  1019.3  0.00  0.00   0.020   0.000   23.8    50   12.7   23.8   9.25  .0736    117    1    100.0    5 
15/11/18   2:40   12.6   12.6   12.6    87   10.4   0.0   ---   0.00   0.0   ---   12.6   12.6   12.6  1019.3  0.00  0.00   0.020   0.000   23.7    50   12.7   23.7   9.25  .0736    117    1    100.0    5 
15/11/18   2:45   12.6   12.6   12.6    87   10.4   0.0   ---   0.00   0.0   ---   12.6   12.6   12.6  1019.4  0.00  0.00   0.020   0.000   23.7    50   12.7   23.7   9.25  .0736    116    1    100.0    5 
15/11/18   2:50   12.6   12.6   12.5    87   10.4   0.0   ---   0.00   0.0   ---   12.6   12.6   12.6  1019.3  0.00  0.00   0.020   0.000   23.7    50   12.7   23.7   9.25  .0736    118    1    100.0    5 
15/11/18   2:55   12.6   12.6   12.5    87   10.4   0.0   ---   0.00   0.0   ---   12.6   12.6   12.6  1019.3  0.00  0.00   0.020   0.000   23.7    50   12.7   23.7   9.25  .0736    116    1    100.0    5 
15/11/18   3:00   12.5   12.6   12.5    87   10.4   0.0   ---   0.00   0.0   ---   12.5   12.5   12.5  1019.3  0.00  0.00   0.020   0.000   23.7    50   12.7   23.7   9.25  .0736    117    1    100.0    5 
15/11/18   3:05   12.5   12.6   12.5    87   10.4   0.0   ---   0.00   0.0   ---   12.5   12.5   12.5  1019.3  0.00  0.00   0.020   0.000   23.7    50   12.6   23.6   9.25  .0737    116    1    100.0    5 
15/11/18   3:10   12.5   12.5   12.5    87   10.4   0.0   ---   0.00   0.0   ---   12.5   12.5   12.5  1019.2  0.00  0.00   0.020   0.000   23.7    50   12.7   23.7   9.25  .0736    117    1    100.0    5 
15/11/18   3:15   12.5   12.6   12.5    87   10.4   0.0   ---   0.00   0.0   ---   12.5   12.5   12.5  1019.2  0.00  0.00   0.020   0.000   23.7    50   12.7   23.7   9.25  .0736    116    1    100.0    5 
15/11/18   3:20   12.6   12.6   12.5    87   10.4   0.0   ---   0.00   0.0   ---   12.6   12.6   12.6  1019.3  0.00  0.00   0.020   0.000   23.8    50   12.7   23.8   9.25  .0736    117    1    100.0    5 
15/11/18   3:25   12.6   12.6   12.6    87   10.4   0.0   ---   0.00   0.0   ---   12.6   12.6   12.6  1019.3  0.00  0.00   0.020   0.000   23.8    50   12.7   23.8   9.25  .0736    116    1    100.0    5 
15/11/18   3:30   12.6   12.6   12.6    87   10.4   0.0   ---   0.00   0.0   ---   12.6   12.6   12.6  1019.3  0.00  0.00   0.020   0.000   23.8    50   12.8   23.9   9.25  .0736    117    1    100.0    5 
15/11/18   3:35   12.6   12.6   12.6    87   10.4   0.0   ---   0.00   0.0   ---   12.6   12.6   12.6  1019.3  0.00  0.00   0.020   0.000   23.8    50   12.8   23.9   9.25  .0736    117    1    100.0    5 
15/11/18   3:40   12.6   12.6   12.6    87   10.4   0.0   ---   0.00   0.0   ---   12.6   12.6   12.6  1019.4  0.00  0.00   0.020   0.000   23.8    50   12.8   23.9   9.25  .0736    117    1    100.0    5 
15/11/18   3:45   12.6   12.6   12.6    87   10.4   0.0   ---   0.00   0.0   ---   12.6   12.6   12.6  1019.3  0.00  0.00   0.020   0.000   23.8    51   13.1   23.9   9.35  .0736    117    1    100.0    5 
15/11/18   3:50   12.6   12.6   12.6    87   10.4   0.0   ---   0.00   0.0   ---   12.6   12.6   12.6  1019.3  0.00  0.00   0.020   0.000   23.9    51   13.1   24.0   9.35  .0736    118    1    100.0    5 
15/11/18   3:55   12.6   12.6   12.6    87   10.4   0.0   ---   0.00   0.0   ---   12.6   12.6   12.6  1019.4  0.00  0.00   0.020   0.000   23.9    50   12.9   24.0   9.25  .0736    117    1    100.0    5 
15/11/18   4:00   12.6   12.6   12.6    87   10.4   0.0   ---   0.00   0.0   ---   12.6   12.6   12.6  1019.3  0.00  0.00   0.020   0.000   23.9    50   12.9   24.0   9.25  .0736    117    1    100.0    5 
15/11/18   4:05   12.6   12.6   12.6    87   10.4   0.0   ---   0.00   0.0   ---   12.6   12.6   12.6  1019.3  0.00  0.00   0.020   0.000   23.9    50   12.9   24.0   9.25  .0736    116    1    100.0    5 
15/11/18   4:10   12.6   12.6   12.6    87   10.4   0.0   ---   0.00   0.0   ---   12.6   12.6   12.6  1019.3  0.00  0.00   0.020   0.000   23.9    50   12.9   24.0   9.25  .0736    117    1    100.0    5 
15/11/18   4:15   12.6   12.6   12.6    87   10.4   0.0   ---   0.00   0.0   ---   12.6   12.6   12.6  1019.3  0.00  0.00   0.020   0.000   23.9    50   12.8   23.9   9.25  .0736    116    1    100.0    5 
15/11/18   4:20   12.6   12.6   12.6    87   10.5   0.0   ---   0.00   0.0   ---   12.6   12.6   12.6  1019.3  0.00  0.00   0.020   0.000   23.9    50   12.8   23.9   9.25  .0736    116    1    100.0    5 
15/11/18   4:25   12.6   12.6   12.6    87   10.5   0.0   ---   0.00   0.0   ---   12.6   12.6   12.6  1019.3  0.00  0.00   0.020   0.000   23.9    50   12.8   23.9   9.25  .0736    116    1    100.0    5 
15/11/18   4:30   12.6   12.6   12.6    87   10.5   0.0   ---   0.00   0.0   ---   12.6   12.6   12.6  1019.3  0.00  0.00   0.020   0.000   23.8    51   13.1   23.9   9.35  .0736    116    1    100.0    5 
15/11/18   4:35   12.7   12.7   12.6    87   10.6   0.0   ---   0.00   0.0   ---   12.7   12.7   12.7  1019.2  0.00  0.00   0.020   0.000   23.8    51   13.1   23.9   9.35  .0736    117    1    100.0    5 
15/11/18   4:40   12.7   12.7   12.6    87   10.6   0.0   ---   0.00   0.0   ---   12.7   12.7   12.7  1019.2  0.00  0.00   0.020   0.000   23.8    51   13.1   23.9   9.35  .0736    116    1    100.0    5 
15/11/18   4:45   12.7   12.7   12.7    87   10.6   0.0   ---   0.00   0.0   ---   12.7   12.7   12.7  1019.2  0.00  0.00   0.020   0.000   23.8    51   13.1   23.9   9.35  .0736    116    1    100.0    5 
15/11/18   4:50   12.7   12.7   12.7    87   10.6   0.0   ---   0.00   0.0   ---   12.7   12.7   12.7  1019.2  0.00  0.00   0.020   0.000   23.8    51   13.1   23.9   9.35  .0736    116    1    100.0    5 
15/11/18   4:55   12.7   12.7   12.7    87   10.6   0.0   WSW   0.00   2.0   WSW   12.7   12.7   12.7  1019.1  0.00  0.00   0.019   0.000   23.8    50   12.8   23.9   9.25  .0736    118    1    100.0    5 
15/11/18   5:00   12.7   12.7   12.7    87   10.6   0.0   WSW   0.00   1.0   WSW   12.7   12.7   12.7  1019.2  0.00  0.00   0.019   0.000   23.8    50   12.8   23.9   9.25  .0736    117    1    100.0    5 
15/11/18   5:05   12.7   12.8   12.7    87   10.6   0.0   ---   0.00   0.0   ---   12.7   12.7   12.7  1019.3  0.00  0.00   0.019   0.000   23.8    51   13.1   23.9   9.35  .0736    116    1    100.0    5 
15/11/18   5:10   12.8   12.8   12.7    87   10.7   0.0   ---   0.00   0.0   ---   12.8   12.8   12.8  1019.3  0.00  0.00   0.019   0.000   23.8    50   12.8   23.9   9.25  .0736    114    1    100.0    5 
15/11/18   5:15   12.8   12.8   12.7    87   10.7   0.0   WSW   0.00   1.0   WSW   12.8   12.8   12.8  1019.3  0.00  0.00   0.019   0.000   23.8    51   13.0   23.8   9.35  .0736    117    1    100.0    5 
15/11/18   5:20   12.8   12.8   12.7    87   10.7   0.0   WSW   0.00   1.0   WSW   12.8   12.8   12.8  1019.3  0.00  0.00   0.019   0.000   23.8    50   12.8   23.9   9.25  .0736    117    1    100.0    5 
15/11/18   5:25   12.8   12.8   12.8    87   10.7   1.0   WSW   0.08   2.0   WSW   12.8   12.8   12.8  1019.2  0.00  0.00   0.019   0.000   23.8    51   13.0   23.8   9.35  .0736    117    1    100.0    5 
15/11/18   5:30   12.8   12.9   12.8    87   10.7   1.0   WSW   0.08   4.0   WSW   12.8   12.8   12.8  1019.3  0.00  0.00   0.019   0.000   23.8    51   13.0   23.8   9.35  .0736    116    1    100.0    5 
15/11/18   5:35   12.9   12.9   12.8    87   10.8   1.0   WSW   0.08   5.0   WSW   12.9   12.9   12.9  1019.2  0.00  0.00   0.019   0.000   23.8    51   13.0   23.8   9.35  .0736    117    1    100.0    5 
15/11/18   5:40   12.9   12.9   12.9    87   10.8   2.0    SW   0.17   6.0   WSW   12.9   12.9   12.9  1019.3  0.00  0.00   0.019   0.000   23.8    51   13.0   23.8   9.35  .0736    116    1    100.0    5 
15/11/18   5:45   12.9   12.9   12.9    87   10.8   2.0    SW   0.17   6.0    SW   12.9   12.9   12.9  1019.2  0.00  0.00   0.019   0.000   23.7    51   13.0   23.8   9.36  .0736    116    1    100.0    5 
15/11/18   5:50   12.8   12.9   12.8    87   10.7   5.0     S   0.42   7.0     S   12.3   12.8   12.3  1019.2  0.00  0.00   0.019   0.000   23.7    51   13.0   23.8   9.36  .0736    117    1    100.0    5 
15/11/18   5:55   12.8   12.8   12.8    87   10.7   7.0   SSE   0.58   8.0   SSE   11.8   12.8   11.8  1019.3  0.00  0.00   0.019   0.000   23.8    51   13.0   23.8   9.35  .0736    117    1    100.0    5 
15/11/18   6:00   12.8   12.8   12.8    87   10.7   8.0   SSE   0.67  11.0   SSE   11.4   12.8   11.4  1019.3  0.00  0.00   0.019   0.000   23.7    51   13.0   23.8   9.36  .0736    116    1    100.0    5 
15/11/18   6:05   12.8   12.8   12.7    87   10.7   5.0   SSE   0.42   8.0   SSE   12.3   12.8   12.3  1019.3  0.00  0.00   0.019   0.000   23.7    51   13.0   23.8   9.36  .0736    117    1    100.0    5 
15/11/18   6:10   12.7   12.8   12.7    87   10.6   6.0   SSE   0.50   8.0   SSE   11.9   12.7   11.9  1019.3  0.00  0.00   0.019   0.000   23.7    51   13.0   23.8   9.36  .0736    117    1    100.0    5 
15/11/18   6:15   12.8   12.8   12.7    87   10.7   7.0   SSE   0.58   9.0   SSE   11.8   12.8   11.8  1019.4  0.00  0.00   0.019   0.000   23.7    51   13.0   23.8   9.36  .0736    117    1    100.0    5 
15/11/18   6:20   12.8   12.8   12.7    87   10.7   6.0   SSE   0.50   8.0   SSE   12.0   12.8   12.0  1019.3  0.00  0.00   0.019   0.000   23.7    51   13.0   23.8   9.36  .0736    117    1    100.0    5 
15/11/18   6:25   12.8   12.8   12.8    87   10.7   7.0   SSE   0.58   8.0   SSE   11.8   12.8   11.8  1019.3  0.00  0.00   0.019   0.000   23.7    51   13.0   23.8   9.36  .0736    117    1    100.0    5 
15/11/18   6:30   12.8   12.8   12.8    87   10.7   5.0   SSE   0.42   7.0   SSE   12.3   12.8   12.3  1019.4  0.00  0.00   0.019   0.000   23.7    51   12.9   23.7   9.36  .0736    116    1    100.0    5 
15/11/18   6:35   12.8   12.8   12.8    87   10.7   6.0   SSE   0.50   8.0   SSE   12.0   12.8   12.0  1019.4  0.00  0.00   0.019   0.000   23.7    51   12.9   23.7   9.36  .0736    116    1    100.0    5 
15/11/18   6:40   12.8   12.8   12.8    87   10.7   5.0   SSE   0.42   7.0   SSE   12.3   12.8   12.3  1019.5  0.00  0.00   0.019   0.000   23.7    51   12.9   23.7   9.36  .0736    117    1    100.0    5 
15/11/18   6:45   12.8   12.8   12.7    87   10.7   7.0   SSE   0.58   9.0   SSE   11.8   12.8   11.8  1019.5  0.00  0.00   0.019   0.000   23.7    51   12.9   23.7   9.36  .0736    116    1    100.0    5 
15/11/18   6:50   12.8   12.8   12.8    87   10.7   7.0   SSE   0.58   8.0   SSE   11.8   12.8   11.8  1019.4  0.00  0.00   0.019   0.000   23.7    51   12.9   23.7   9.36  .0736    116    1    100.0    5 
15/11/18   6:55   12.8   12.8   12.8    87   10.7   6.0   SSE   0.50   7.0   SSE   12.0   12.8   12.0  1019.5  0.00  0.00   0.019   0.000   23.7    51   13.0   23.8   9.36  .0736    117    1    100.0    5 
15/11/18   7:00   12.8   12.8   12.8    87   10.7   6.0   SSE   0.50   8.0   SSE   12.0   12.8   12.0  1019.5  0.00  0.00   0.019   0.000   23.7    51   13.0   23.8   9.36  .0736    117    1    100.0    5 
15/11/18   7:05   12.8   12.8   12.8    87   10.7   6.0   SSE   0.50   8.0   SSE   12.0   12.8   12.0  1019.6  0.00  0.00   0.019   0.000   23.8    51   13.0   23.8   9.35  .0736    117    1    100.0    5 
15/11/18   7:10   12.7   12.8   12.7    87   10.6   5.0   SSE   0.42   8.0   SSE   12.2   12.7   12.2  1019.6  0.00  0.00   0.020   0.000   23.8    51   13.0   23.8   9.35  .0736    117    1    100.0    5 
15/11/18   7:15   12.7   12.7   12.6    87   10.6   4.0   SSE   0.33   7.0   SSE   12.4   12.7   12.4  1019.6  0.00  0.00   0.020   0.000   23.8    51   13.1   23.9   9.35  .0736    117    1    100.0    5 
15/11/18   7:20   12.7   12.7   12.6    87   10.6   4.0   SSE   0.33   6.0   SSE   12.4   12.7   12.4  1019.6  0.00  0.00   0.020   0.000   23.8    51   13.1   23.9   9.35  .0736    117    1    100.0    5 
15/11/18   7:25   12.7   12.7   12.7    87   10.6   4.0   SSE   0.33   6.0   SSE   12.5   12.7   12.5  1019.6  0.00  0.00   0.019   0.000   23.8    51   13.1   23.9   9.35  .0736    117    1    100.0    5 
15/11/18   7:30   12.7   12.7   12.7    87   10.6   4.0   SSE   0.33   6.0   SSE   12.5   12.7   12.5  1019.6  0.00  0.00   0.019   0.000   23.8    51   13.1   23.9   9.35  .0736    117    1    100.0    5 
15/11/18   7:35   12.7   12.7   12.7    87   10.6   4.0   SSE   0.33   6.0   SSE   12.4   12.7   12.4  1019.7  0.00  0.00   0.020   0.000   23.8    51   13.1   23.9   9.35  .0736    117    1    100.0    5 
15/11/18   7:40   12.7   12.7   12.7    87   10.6   5.0   SSE   0.42   8.0   SSE   12.2   12.7   12.2  1019.7  0.00  0.00   0.020   0.000   23.8    51   13.1   23.9   9.35  .0736    117    1    100.0    5 
15/11/18   7:45   12.7   12.7   12.7    87   10.6   4.0   SSE   0.33   6.0   SSE   12.5   12.7   12.5  1019.8  0.00  0.00   0.019   0.000   23.8    51   13.1   23.9   9.35  .0736    112    1     98.2    5 
15/11/18   7:50   12.7   12.7   12.7    87   10.6   5.0   SSE   0.42   8.0   SSE   12.2   12.7   12.2  1019.8  0.00  0.00   0.019   0.000   23.9    51   13.1   24.0   9.35  .0736    116    1    100.0    5 
15/11/18   7:55   12.7   12.7   12.7    87   10.6   4.0   SSE   0.33   6.0   SSE   12.5   12.7   12.5  1019.9  0.00  0.00   0.019   0.000   23.9    51   13.2   24.1   9.35  .0736    116    1    100.0    5 
15/11/18   8:00   12.7   12.7   12.7    87   10.6   3.0   SSE   0.25   5.0   SSE   12.7   12.7   12.7  1019.8  0.00  0.00   0.019   0.000   24.0    51   13.2   24.1   9.35  .0736    116    1    100.0    5 
15/11/18   8:05   12.7   12.7   12.7    87   10.6   2.0   SSE   0.17   4.0   SSE   12.7   12.7   12.7  1020.0  0.00  0.00   0.019   0.000   24.0    51   13.2   24.1   9.35  .0736    118    1    100.0    5 
15/11/18   8:10   12.7   12.7   12.7    87   10.6   3.0   SSE   0.25   4.0   SSE   12.7   12.7   12.7  1020.1  0.00  0.00   0.019   0.000   24.0    51   13.2   24.1   9.35  .0736    117    1    100.0    5 
15/11/18   8:15   12.7   12.8   12.7    87   10.6   3.0   SSE   0.25   4.0   SSE   12.7   12.7   12.7  1020.0  0.00  0.00   0.019   0.000   24.0    51   13.2   24.1   9.35  .0736    116    1    100.0    5 
15/11/18   8:20   12.8   12.8   12.7    87   10.7   3.0   SSE   0.25   4.0   SSE   12.8   12.8   12.8  1020.1  0.00  0.00   0.019   0.000   24.0    51   13.2   24.1   9.35  .0736    115    1    100.0    5 
15/11/18   8:25   12.8   12.8   12.8    87   10.7   3.0   SSE   0.25   4.0   SSE   12.8   12.8   12.8  1020.1  0.00  0.00   0.019   0.000   24.1    51   13.3   24.1   9.35  .0736    116    1    100.0    5 
15/11/18   8:30   12.9   12.9   12.8    87   10.8   3.0    SE   0.25   6.0    SE   12.9   12.9   12.9  1020.1  0.00  0.00   0.019   0.000   24.1    51   13.3   24.1   9.35  .0736    117    1    100.0    5 
15/11/18   8:35   13.0   13.0   12.9    87   10.9   2.0    SE   0.17   3.0    SE   13.0   13.0   13.0  1020.2  0.00  0.00   0.019   0.000   24.1    51   13.3   24.1   9.35  .0736    115    1    100.0    5 
15/11/18   8:40   13.1   13.1   13.0    87   10.9   2.0    SE   0.17   4.0    SE   13.1   13.1   13.1  1020.2  0.00  0.00   0.018   0.000   24.1    51   13.3   24.1   9.35  .0736    117    1    100.0    5 
15/11/18   8:45   13.2   13.2   13.1    87   11.0   3.0    SE   0.25   4.0    SE   13.2   13.2   13.2  1020.2  0.00  0.00   0.018   0.000   24.1    51   13.3   24.1   9.35  .0736    117    1    100.0    5 
15/11/18   8:50   13.2   13.2   13.1    87   11.0   4.0    SE   0.33   6.0    SE   13.0   13.2   13.0  1020.2  0.00  0.00   0.018   0.000   24.0    51   13.2   24.1   9.35  .0736    117    1    100.0    5 
15/11/18   8:55   13.1   13.2   13.1    87   11.0   4.0    SE   0.33   7.0    SE   12.9   13.1   12.9  1020.2  0.00  0.00   0.018   0.000   24.0    51   13.2   24.1   9.35  .0736    116    1    100.0    5 
15/11/18   9:00   13.1   13.2   13.1    87   11.0   3.0    SE   0.25   5.0    SE   13.1   13.1   13.1  1020.2  0.00  0.00   0.018   0.000   24.1    51   13.3   24.1   9.35  .0736    117    1    100.0    5 
15/11/18   9:05   13.2   13.2   13.1    87   11.0   2.0    SE   0.17   4.0    SE   13.2   13.2   13.2  1020.2  0.00  0.00   0.018   0.000   24.1    51   13.3   24.1   9.35  .0736    115    1    100.0    5 
15/11/18   9:10   13.3   13.3   13.2    87   11.2   3.0    SE   0.25   5.0    SE   13.3   13.3   13.3  1020.3  0.00  0.00   0.018   0.000   24.1    51   13.3   24.1   9.35  .0736    115    1    100.0    5 
15/11/18   9:15   13.3   13.3   13.3    87   11.2   3.0    SE   0.25   4.0    SE   13.3   13.3   13.3  1020.3  0.00  0.00   0.017   0.000   24.1    51   13.3   24.1   9.35  .0736    117    1    100.0    5 
15/11/18   9:20   13.4   13.4   13.3    87   11.3   3.0    SE   0.25   4.0    SE   13.4   13.4   13.4  1020.3  0.00  0.00   0.017   0.000   24.1    51   13.3   24.1   9.35  .0736    116    1    100.0    5 
15/11/18   9:25   13.6   13.6   13.4    87   11.4   2.0    SE   0.17   4.0    SE   13.6   13.6   13.6  1020.4  0.00  0.00   0.017   0.000   24.1    51   13.3   24.1   9.35  .0736    117    1    100.0    5 
15/11/18   9:30   13.7   13.7   13.6    87   11.5   3.0    SE   0.25   5.0    SE   13.7   13.7   13.7  1020.3  0.00  0.00   0.016   0.000   24.1    51   13.3   24.1   9.35  .0736    116    1    100.0    5 
15/11/18   9:35   13.7   13.7   13.7    87   11.6   4.0    SE   0.33   6.0    SE   13.7   13.7   13.7  1020.4  0.00  0.00   0.016   0.000   24.1    51   13.3   24.1   9.35  .0736    116    1    100.0    5 
15/11/18   9:40   13.8   13.8   13.7    87   11.7   3.0    SE   0.25   5.0    SE   13.8   13.8   13.8  1020.4  0.00  0.00   0.016   0.000   24.1    51   13.3   24.1   9.35  .0736    116    1    100.0    5 
15/11/18   9:45   13.8   13.8   13.7    87   11.7   3.0    SE   0.25   4.0    SE   13.8   13.8   13.8  1020.4  0.00  0.00   0.016   0.000   24.1    51   13.3   24.1   9.35  .0736    117    1    100.0    5 
15/11/18   9:50   13.8   13.8   13.8    87   11.7   3.0    SE   0.25   4.0    SE   13.8   13.8   13.8  1020.4  0.00  0.00   0.016   0.000   24.1    51   13.3   24.2   9.35  .0736    116    1    100.0    5 
15/11/18   9:55   13.8   13.8   13.8    87   11.7   3.0    SE   0.25   5.0    SE   13.8   13.8   13.8  1020.3  0.00  0.00   0.016   0.000   24.1    51   13.3   24.2   9.35  .0736    116    1    100.0    5 
15/11/18  10:00   13.9   13.9   13.8    87   11.8   4.0    SE   0.33   7.0    SE   13.9   13.9   13.9  1020.3  0.00  0.00   0.015   0.000   24.1    51   13.3   24.1   9.35  .0736    116    1    100.0    5 
15/11/18  10:05   13.9   13.9   13.8    87   11.8   5.0    SE   0.42   6.0   SSE   13.6   13.9   13.6  1020.3  0.00  0.00   0.015   0.000   24.1    51   13.3   24.1   9.35  .0736    115    1    100.0    5 
15/11/18  10:10   13.9   13.9   13.9    87   11.8   4.0    SE   0.33   6.0    SE   13.9   13.9   13.9  1020.3  0.00  0.00   0.015   0.000   24.1    51   13.3   24.1   9.35  .0736    115    1    100.0    5 
15/11/18  10:15   13.8   13.9   13.8    87   11.7   5.0    SE   0.42   7.0    SE   13.5   13.8   13.5  1020.3  0.00  0.00   0.016   0.000   24.1    51   13.3   24.2   9.35  .0736    116    1    100.0    5 
15/11/18  10:20   13.8   13.9   13.8    87   11.7   6.0    SE   0.50   9.0    SE   13.3   13.8   13.3  1020.3  0.00  0.00   0.016   0.000   24.1    51   13.3   24.1   9.35  .0736    117    1    100.0    5 
15/11/18  10:25   13.7   13.8   13.7    87   11.6   5.0    SE   0.42   9.0    SE   13.4   13.7   13.4  1020.2  0.00  0.00   0.016   0.000   24.1    51   13.3   24.2   9.35  .0736    117    1    100.0    5 
15/11/18  10:30   13.7   13.7   13.7    87   11.6   4.0    SE   0.33   6.0    SE   13.7   13.7   13.7  1020.2  0.00  0.00   0.016   0.000   24.1    51   13.3   24.2   9.35  .0736    117    1    100.0    5 
15/11/18  10:35   13.7   13.7   13.7    87   11.6   3.0    SE   0.25   5.0    SE   13.7   13.7   13.7  1020.2  0.00  0.00   0.016   0.000   24.1    51   13.3   24.2   9.35  .0736    117    1    100.0    5 
15/11/18  10:40   13.7   13.7   13.7    87   11.6   4.0    SE   0.33   6.0    SE   13.7   13.7   13.7  1020.1  0.00  0.00   0.016   0.000   24.1    51   13.3   24.2   9.35  .0736    116    1    100.0    5 
15/11/18  10:45   13.8   13.8   13.7    87   11.7   6.0    SE   0.50   8.0    SE   13.2   13.8   13.2  1020.1  0.00  0.00   0.016   0.000   24.1    51   13.3   24.2   9.35  .0735    116    1    100.0    5 
15/11/18  10:50   13.8   13.8   13.8    87   11.7   6.0    SE   0.50   7.0    SE   13.2   13.8   13.2  1020.1  0.00  0.00   0.016   0.000   24.2    51   13.4   24.2   9.35  .0735    117    1    100.0    5 
15/11/18  10:55   13.8   13.8   13.8    87   11.7   7.0    SE   0.58  10.0   ESE   13.0   13.8   13.0  1020.0  0.00  0.00   0.016   0.000   24.2    51   13.4   24.2   9.35  .0735    116    1    100.0    5 
15/11/18  11:00   13.8   13.8   13.8    87   11.7   8.0   ESE   0.67  10.0   ESE   12.7   13.8   12.7  1020.0  0.00  0.00   0.016   0.000   24.2    51   13.4   24.3   9.35  .0735    117    1    100.0    5 
15/11/18  11:05   13.8   13.8   13.8    87   11.7   7.0   ESE   0.58   9.0   ESE   13.1   13.8   13.1  1020.1  0.00  0.00   0.016   0.000   24.3    51   13.5   24.3   9.35  .0735    116    1    100.0    5 
15/11/18  11:10   13.8   13.8   13.8    87   11.7   8.0   ESE   0.67  11.0   ESE   12.6   13.8   12.6  1020.0  0.00  0.00   0.016   0.000   24.3    51   13.5   24.3   9.35  .0735    117    1    100.0    5 
15/11/18  11:15   13.8   13.8   13.8    87   11.7   8.0   ESE   0.67  10.0   ESE   12.6   13.8   12.6  1019.9  0.00  0.00   0.016   0.000   24.3    51   13.5   24.4   9.35  .0735    117    1    100.0    5 
15/11/18  11:20   13.9   13.9   13.8    87   11.8   6.0   ESE   0.50   8.0   ESE   13.3   13.9   13.3  1019.9  0.00  0.00   0.015   0.000   24.3    51   13.5   24.4   9.35  .0735    117    1    100.0    5 
15/11/18  11:25   13.9   13.9   13.9    87   11.8   6.0   ESE   0.50   7.0   ESE   13.4   13.9   13.4  1019.9  0.00  0.00   0.015   0.000   24.3    51   13.5   24.4   9.35  .0735    114    1    100.0    5 
15/11/18  11:30   14.0   14.1   13.9    87   11.9   5.0   ESE   0.42   7.0   ESE   13.7   14.0   13.7  1019.8  0.00  0.00   0.015   0.000   24.3    51   13.5   24.4   9.35  .0735    117    1    100.0    5 
15/11/18  11:35   14.1   14.1   14.1    87   12.0   5.0   ESE   0.42   9.0   ESE   13.8   14.1   13.8  1019.8  0.00  0.00   0.015   0.000   24.4    51   13.6   24.4   9.35  .0734    117    1    100.0    5 
15/11/18  11:40   14.1   14.1   14.1    86   11.8   4.0   ESE   0.33   8.0   ESE   14.1   14.1   14.1  1019.8  0.00  0.00   0.015   0.000   24.3    51   13.5   24.4   9.35  .0735    117    1    100.0    5 
15/11/18  11:45   14.2   14.2   14.1    87   12.0   5.0   ESE   0.42   8.0   ESE   13.9   14.2   13.9  1019.8  0.00  0.00   0.014   0.000   24.4    51   13.6   24.4   9.35  .0734    117    1    100.0    5 
15/11/18  11:50   14.2   14.2   14.2    87   12.1   4.0   ESE   0.33   8.0   ESE   14.2   14.2   14.2  1019.8  0.00  0.00   0.014   0.000   24.4    51   13.6   24.4   9.35  .0734    116    1    100.0    5 
15/11/18  11:55   14.3   14.3   14.2    87   12.1   5.0   ESE   0.42   9.0   ESE   14.0   14.3   14.0  1019.7  0.00  0.00   0.014   0.000   24.4    51   13.6   24.4   9.35  .0734    117    1    100.0    5 
15/11/18  12:00   14.3   14.3   14.3    87   12.1   4.0   ESE   0.33   7.0   ESE   14.3   14.3   14.3  1019.7  0.00  0.00   0.014   0.000   24.4    51   13.6   24.4   9.35  .0734    117    1    100.0    5 
15/11/18  12:05   14.3   14.3   14.3    87   12.1   5.0   ESE   0.42   8.0   ESE   14.0   14.3   14.0  1019.7  0.00  0.00   0.014   0.000   24.4    51   13.6   24.4   9.35  .0734    117    1    100.0    5 
15/11/18  12:10   14.3   14.3   14.3    86   12.0   5.0   ESE   0.42  10.0   ESE   14.0   14.2   13.9  1019.7  0.00  0.00   0.014   0.000   24.4    51   13.6   24.4   9.35  .0734    117    1    100.0    5 
15/11/18  12:15   14.2   14.3   14.2    86   11.9   5.0   ESE   0.42   9.0   ESE   13.9   14.2   13.9  1019.8  0.00  0.00   0.014   0.000   24.4    51   13.6   24.4   9.35  .0734    116    1    100.0    5 
15/11/18  12:20   14.3   14.3   14.2    86   12.0   3.0   ESE   0.25   8.0   ESE   14.3   14.2   14.2  1019.7  0.00  0.00   0.014   0.000   24.4    51   13.6   24.4   9.35  .0734    118    1    100.0    5 
15/11/18  12:25   14.3   14.3   14.3    86   12.0   5.0   ESE   0.42   8.0   ESE   14.0   14.2   13.9  1019.7  0.00  0.00   0.014   0.000   24.4    51   13.6   24.4   9.35  .0734    115    1    100.0    5 
15/11/18  12:30   14.3   14.3   14.3    86   12.0   6.0   ESE   0.50  13.0   ESE   13.8   14.2   13.7  1019.8  0.00  0.00   0.014   0.000   24.4    51   13.6   24.4   9.35  .0734    117    1    100.0    5 
15/11/18  12:35   14.3   14.3   14.3    86   12.0   5.0   ESE   0.42  11.0   ESE   14.0   14.2   13.9  1019.7  0.00  0.00   0.014   0.000   24.4    51   13.6   24.5   9.35  .0734    117    1    100.0    5 
15/11/18  12:40   14.3   14.3   14.3    86   12.0   4.0   ESE   0.33   7.0   ESE   14.3   14.2   14.2  1019.6  0.00  0.00   0.014   0.000   24.4    51   13.6   24.5   9.35  .0734    116    1    100.0    5 
15/11/18  12:45   14.3   14.3   14.3    86   12.0   5.0   ESE   0.42   9.0   ESE   14.0   14.2   13.9  1019.5  0.00  0.00   0.014   0.000   24.4    51   13.6   24.5   9.35  .0734    116    1    100.0    5 
15/11/18  12:50   14.3   14.3   14.3    86   12.0   5.0   ESE   0.42   9.0   ESE   14.1   14.3   14.1  1019.5  0.00  0.00   0.014   0.000   24.4    51   13.6   24.4   9.35  .0734    116    1    100.0    5 
15/11/18  12:55   14.4   14.4   14.3    86   12.1   4.0     E   0.33   8.0   ESE   14.4   14.3   14.3  1019.4  0.00  0.00   0.014   0.000   24.4    51   13.6   24.5   9.35  .0734    117    1    100.0    5 
15/11/18  13:00   14.4   14.4   14.4    86   12.1   5.0     E   0.42   9.0     E   14.2   14.4   14.2  1019.4  0.00  0.00   0.014   0.000   24.4    51   13.6   24.5   9.35  .0734    117    1    100.0    5 
15/11/18  13:05   14.6   14.6   14.4    86   12.2   6.0     E   0.50   9.0     E   14.1   14.6   14.1  1019.4  0.00  0.00   0.013   0.000   24.4    51   13.6   24.5   9.35  .0734    117    1    100.0    5 
15/11/18  13:10   14.7   14.7   14.6    86   12.3   5.0     E   0.42   9.0     E   14.5   14.7   14.5  1019.4  0.00  0.00   0.013   0.000   24.4    51   13.6   24.5   9.35  .0734    117    1    100.0    5 
15/11/18  13:15   14.8   14.8   14.7    86   12.5   4.0     E   0.33   7.0     E   14.8   14.8   14.8  1019.5  0.00  0.00   0.012   0.000   24.5    51   13.7   24.5   9.35  .0734    117    1    100.0    5 
15/11/18  13:20   14.9   14.9   14.8    86   12.6   5.0     E   0.42  10.0     E   14.8   14.9   14.8  1019.5  0.00  0.00   0.012   0.000   24.5    51   13.7   24.5   9.35  .0734    116    1    100.0    5 
15/11/18  13:25   15.0   15.0   14.9    86   12.7   4.0     E   0.33   9.0     E   15.0   15.0   15.0  1019.5  0.00  0.00   0.012   0.000   24.5    51   13.7   24.5   9.35  .0734    117    1    100.0    5 
15/11/18  13:30   15.1   15.1   15.0    86   12.7   4.0     E   0.33   9.0     E   15.1   15.1   15.1  1019.5  0.00  0.00   0.011   0.000   24.6    51   13.7   24.6   9.35  .0734    117    1    100.0    5 
15/11/18  13:35   15.0   15.1   15.0    86   12.7   4.0     E   0.33   9.0     E   15.0   15.0   15.0  1019.5  0.00  0.00   0.012   0.000   24.6    51   13.7   24.6   9.35  .0734    116    1    100.0    5 
15/11/18  13:40   15.1   15.1   15.0    86   12.7   5.0     E   0.42   9.0     E   14.9   15.1   14.9  1019.5  0.00  0.00   0.011   0.000   24.6    51   13.7   24.6   9.35  .0734    115    1    100.0    5 
15/11/18  13:45   15.1   15.1   15.0    86   12.7   5.0     E   0.42   8.0     E   14.9   15.1   14.9  1019.5  0.00  0.00   0.011   0.000   24.6    51   13.7   24.6   9.35  .0734    117    1    100.0    5 
15/11/18  13:50   15.1   15.1   15.1    85   12.6   5.0     E   0.42   8.0     E   15.0   15.1   15.0  1019.5  0.00  0.00   0.011   0.000   24.6    51   13.7   24.6   9.35  .0734    117    1    100.0    5 
15/11/18  13:55   15.2   15.2   15.1    85   12.7   6.0     E   0.50  10.0     E   14.9   15.2   14.9  1019.4  0.00  0.00   0.011   0.000   24.6    51   13.7   24.6   9.35  .0734    117    1    100.0    5 
15/11/18  14:00   15.2   15.2   15.2    85   12.7   4.0     E   0.33   9.0     E   15.2   15.2   15.2  1019.4  0.00  0.00   0.011   0.000   24.6    51   13.7   24.6   9.35  .0734    117    1    100.0    5 
15/11/18  14:05   15.2   15.2   15.2    85   12.7   5.0     E   0.42   9.0     E   15.1   15.2   15.1  1019.3  0.00  0.00   0.011   0.000   24.6    51   13.8   24.6   9.35  .0733    117    1    100.0    5 
15/11/18  14:10   15.2   15.2   15.1    85   12.7   6.0     E   0.50  11.0     E   14.9   15.2   14.9  1019.3  0.00  0.00   0.011   0.000   24.6    51   13.8   24.6   9.35  .0733    117    1    100.0    5 
15/11/18  14:15   15.2   15.2   15.2    85   12.7   6.0     E   0.50  11.0     E   14.9   15.2   14.9  1019.3  0.00  0.00   0.011   0.000   24.6    51   13.8   24.6   9.35  .0733    115    1    100.0    5 
15/11/18  14:20   15.2   15.2   15.2    85   12.7   4.0     E   0.33   9.0     E   15.2   15.2   15.2  1019.3  0.00  0.00   0.011   0.000   24.7    51   13.9   24.7   9.35  .0733    116    1    100.0    5 
15/11/18  14:25   15.2   15.2   15.1    85   12.7   5.0     E   0.42   8.0     E   15.1   15.2   15.1  1019.4  0.00  0.00   0.011   0.000   24.7    51   13.9   24.7   9.35  .0733    117    1    100.0    5 
15/11/18  14:30   15.1   15.2   15.1    84   12.4   7.0     E   0.58  11.0   ESE   14.6   15.1   14.6  1019.4  0.00  0.00   0.011   0.000   24.7    51   13.9   24.7   9.35  .0733    115    1    100.0    5 
15/11/18  14:35   15.0   15.1   15.0    84   12.3   8.0   ESE   0.67  10.0   ESE   14.1   15.0   14.1  1019.4  0.00  0.00   0.012   0.000   24.7    51   13.9   24.7   9.35  .0733    117    1    100.0    5 
15/11/18  14:40   14.9   15.1   14.9    84   12.3   9.0   ESE   0.75  11.0   ESE   13.6   14.9   13.6  1019.4  0.00  0.00   0.012   0.000   24.7    51   13.9   24.7   9.35  .0733    117    1    100.0    5 
15/11/18  14:45   14.8   14.9   14.8    84   12.1   9.0   ESE   0.75  11.0   ESE   13.3   14.7   13.3  1019.4  0.00  0.00   0.012   0.000   24.7    51   13.9   24.7   9.35  .0733    116    1    100.0    5 
15/11/18  14:50   14.6   14.8   14.6    84   11.9  10.0   ESE   0.83  13.0   ESE   12.8   14.6   12.7  1019.4  0.00  0.00   0.013   0.000   24.7    51   13.9   24.7   9.35  .0733    117    1    100.0    5 
15/11/18  14:55   14.4   14.6   14.4    84   11.8  10.0   ESE   0.83  13.0   ESE   12.6   14.4   12.5  1019.3  0.00  0.00   0.014   0.000   24.6    51   13.8   24.6   9.35  .0733    116    1    100.0    5 
15/11/18  15:00   14.3   14.4   14.3    85   11.8  10.0   ESE   0.83  13.0   ESE   12.4   14.3   12.4  1019.3  0.00  0.00   0.014   0.000   24.6    51   13.8   24.6   9.35  .0733    116    1    100.0    5 
15/11/18  15:05   14.3   14.3   14.3    85   11.8   7.0   ESE   0.58  12.0   ESE   13.6   14.2   13.5  1019.3  0.00  0.00   0.014   0.000   24.6    50   13.5   24.6   9.22  .0734    115    1    100.0    5 
15/11/18  15:10   14.2   14.3   14.2    85   11.7   7.0     E   0.58  11.0     E   13.4   14.1   13.4  1019.2  0.00  0.00   0.014   0.000   24.6    50   13.5   24.6   9.22  .0734    116    1    100.0    5 
15/11/18  15:15   14.1   14.2   14.1    85   11.6   6.0     E   0.50  10.0     E   13.6   14.1   13.6  1019.2  0.00  0.00   0.015   0.000   24.6    50   13.5   24.6   9.22  .0734    116    1    100.0    5 
15/11/18  15:20   14.1   14.1   14.1    85   11.6   6.0     E   0.50   9.0     E   13.6   14.0   13.5  1019.2  0.00  0.00   0.015   0.000   24.6    50   13.5   24.6   9.22  .0734    116    1    100.0    5 
15/11/18  15:25   13.9   14.1   13.9    85   11.5   7.0     E   0.58  13.0     E   13.2   13.9   13.1  1019.3  0.00  0.00   0.015   0.000   24.6    50   13.5   24.6   9.22  .0734    117    1    100.0    5 
15/11/18  15:30   13.8   13.9   13.8    85   11.4   8.0     E   0.67  10.0     E   12.7   13.8   12.6  1019.3  0.00  0.00   0.016   0.000   24.6    50   13.4   24.6   9.23  .0734    117    1    100.0    5 
15/11/18  15:35   13.7   13.8   13.7    85   11.2   6.0     E   0.50  10.0     E   13.1   13.7   13.1  1019.3  0.00  0.00   0.016   0.000   24.6    50   13.4   24.6   9.23  .0734    117    1    100.0    5 
15/11/18  15:40   13.7   13.7   13.7    85   11.2   6.0     E   0.50  10.0     E   13.1   13.6   13.0  1019.2  0.00  0.00   0.016   0.000   24.6    50   13.4   24.6   9.23  .0734    116    1    100.0    5 
15/11/18  15:45   13.6   13.7   13.6    85   11.1   5.0     E   0.42   9.0     E   13.3   13.6   13.2  1019.2  0.00  0.00   0.016   0.000   24.6    50   13.4   24.6   9.23  .0734    116    1    100.0    5 
15/11/18  15:50   13.6   13.6   13.6    85   11.1   5.0     E   0.42   9.0     E   13.2   13.5   13.1  1019.2  0.00  0.00   0.017   0.000   24.6    50   13.4   24.6   9.23  .0734    117    1    100.0    5 
15/11/18  15:55   13.5   13.6   13.5    85   11.0   7.0     E   0.58  11.0     E   12.7   13.4   12.6  1019.2  0.00  0.00   0.017   0.000   24.6    50   13.4   24.6   9.23  .0734    117    1    100.0    5 
15/11/18  16:00   13.4   13.5   13.4    85   11.0   7.0     E   0.58  10.0     E   12.6   13.4   12.5  1019.2  0.00  0.00   0.017   0.000   24.6    50   13.4   24.6   9.23  .0734    115    1    100.0    5 
15/11/18  16:05   13.4   13.4   13.4    85   10.9   7.0     E   0.58  11.0     E   12.5   13.3   12.4  1019.0  0.00  0.00   0.017   0.000   24.6    51   13.7   24.6   9.35  .0733    116    1    100.0    5 
15/11/18  16:10   13.3   13.4   13.3    86   11.0   8.0     E   0.67  11.0     E   12.1   13.3   12.0  1019.0  0.00  0.00   0.017   0.000   24.6    51   13.8   24.6   9.35  .0733    117    1    100.0    5 
15/11/18  16:15   13.3   13.3   13.3    86   11.0   8.0     E   0.67  15.0     E   12.0   13.2   11.9  1019.0  0.00  0.00   0.018   0.000   24.6    50   13.5   24.6   9.22  .0733    116    1    100.0    5 
15/11/18  16:20   13.2   13.3   13.2    86   10.9   8.0     E   0.67  12.0     E   11.9   13.2   11.9  1019.0  0.00  0.00   0.018   0.000   24.6    50   13.5   24.6   9.22  .0733    116    1    100.0    5 
15/11/18  16:25   13.2   13.2   13.2    86   10.9   8.0     E   0.67  11.0     E   11.8   13.1   11.8  1019.0  0.00  0.00   0.018   0.000   24.6    50   13.5   24.6   9.22  .0733    117    1    100.0    5 
15/11/18  16:30   13.1   13.2   13.1    86   10.8   7.0     E   0.58  12.0     E   12.2   13.1   12.1  1019.0  0.00  0.00   0.018   0.000   24.6    51   13.8   24.6   9.35  .0733    117    1    100.0    5 
15/11/18  16:35   13.1   13.1   13.1    86   10.8   8.0     E   0.67  12.0     E   11.7   13.0   11.7  1019.0  0.00  0.00   0.018   0.000   24.6    51   13.8   24.6   9.35  .0733    116    1    100.0    5 
15/11/18  16:40   13.0   13.1   13.0    86   10.7   8.0     E   0.67  12.0     E   11.7   12.9   11.6  1019.1  0.00  0.00   0.019   0.000   24.6    50   13.4   24.6   9.23  .0734    116    1    100.0    5 
15/11/18  16:45   13.0   13.1   13.0    86   10.7   8.0     E   0.67  11.0     E   11.7   12.9   11.6  1019.1  0.00  0.00   0.019   0.000   24.6    51   13.8   24.6   9.35  .0733    117    1    100.0    5 
15/11/18  16:50   12.9   13.0   12.9    86   10.7   8.0     E   0.67  12.0     E   11.6   12.9   11.6  1019.2  0.00  0.00   0.019   0.000   24.6    51   13.7   24.6   9.35  .0733    117    1    100.0    5 
15/11/18  16:55   12.9   12.9   12.9    86   10.7   8.0     E   0.67  13.0     E   11.6   12.9   11.6  1019.2  0.00  0.00   0.019   0.000   24.6    51   13.7   24.6   9.35  .0733    117    1    100.0    5 
15/11/18  17:00   12.9   12.9   12.9    86   10.6   8.0     E   0.67  12.0     E   11.5   12.8   11.4  1019.2  0.00  0.00   0.019   0.000   24.6    51   13.7   24.6   9.35  .0733    116    1    100.0    5 
15/11/18  17:05   12.8   12.9   12.8    86   10.5   9.0     E   0.75  13.0     E   11.1   12.8   11.0  1019.1  0.00  0.00   0.019   0.000   24.6    51   13.7   24.6   9.35  .0733    117    1    100.0    5 
15/11/18  17:10   12.8   12.8   12.8    86   10.5   9.0     E   0.75  14.0     E   11.1   12.8   11.0  1019.1  0.00  0.00   0.019   0.000   24.6    51   13.7   24.6   9.35  .0733    116    1    100.0    5 
15/11/18  17:15   12.8   12.8   12.8    86   10.5   9.0     E   0.75  14.0     E   11.1   12.8   11.0  1019.2  0.00  0.00   0.019   0.000   24.6    51   13.7   24.6   9.35  .0733    115    1    100.0    5 
15/11/18  17:20   12.8   12.8   12.8    86   10.5   9.0     E   0.75  14.0     E   11.0   12.7   10.9  1019.3  0.00  0.00   0.019   0.000   24.5    50   13.4   24.5   9.23  .0734    117    1    100.0    5 
15/11/18  17:25   12.8   12.8   12.8    86   10.5   8.0     E   0.67  12.0   ESE   11.4   12.7   11.3  1019.3  0.00  0.00   0.019   0.000   24.5    51   13.7   24.5   9.35  .0734    117    1    100.0    5 
15/11/18  17:30   12.7   12.8   12.7    86   10.4   9.0     E   0.75  15.0   ESE   10.9   12.7   10.9  1019.3  0.00  0.00   0.019   0.000   24.5    50   13.4   24.5   9.23  .0734    116    1    100.0    5 
15/11/18  17:35   12.7   12.8   12.7    86   10.4   9.0     E   0.75  13.0     E   10.9   12.7   10.9  1019.3  0.00  0.00   0.019   0.000   24.5    50   13.4   24.5   9.23  .0734    118    1    100.0    5 
15/11/18  17:40   12.7   12.7   12.7    86   10.4   8.0     E   0.67  12.0     E   11.3   12.7   11.3  1019.4  0.00  0.00   0.019   0.000   24.5    50   13.4   24.5   9.23  .0734    116    1    100.0    5 
15/11/18  17:45   12.7   12.7   12.7    86   10.4   9.0     E   0.75  13.0     E   10.9   12.6   10.8  1019.5  0.00  0.00   0.020   0.000   24.5    50   13.4   24.5   9.23  .0734    115    1    100.0    5 
15/11/18  17:50   12.7   12.7   12.6    86   10.4   8.0     E   0.67  12.0     E   11.3   12.6   11.2  1019.6  0.00  0.00   0.020   0.000   24.5    50   13.4   24.5   9.23  .0734    117    1    100.0    5 
15/11/18  17:55   12.7   12.7   12.6    86   10.4   8.0     E   0.67  12.0     E   11.3   12.6   11.2  1019.7  0.00  0.00   0.020   0.000   24.5    50   13.4   24.5   9.23  .0734    117    1    100.0    5 
15/11/18  18:00   12.7   12.7   12.6    86   10.4   8.0   ESE   0.67  12.0   ESE   11.3   12.6   11.2  1019.8  0.00  0.00   0.020   0.000   24.4    50   13.3   24.4   9.23  .0734    116    1    100.0    5 
15/11/18  18:05   12.6   12.7   12.6    86   10.3   6.0     E   0.50  12.0     E   11.8   12.6   11.7  1019.8  0.00  0.00   0.020   0.000   24.4    50   13.3   24.4   9.23  .0734    117    1    100.0    5 
15/11/18  18:10   12.6   12.7   12.6    87   10.5   9.0   ESE   0.75  13.0   ESE   10.8   12.6   10.8  1019.9  0.00  0.00   0.020   0.000   24.4    50   13.3   24.4   9.23  .0735    117    1    100.0    5 
15/11/18  18:15   12.6   12.6   12.6    87   10.5  10.0     E   0.83  15.0   ESE   10.4   12.6   10.4  1019.9  0.00  0.00   0.020   0.000   24.4    50   13.3   24.4   9.23  .0735    116    1    100.0    5 
15/11/18  18:20   12.6   12.6   12.6    87   10.5  11.0   ESE   0.92  14.0   ESE   10.1   12.6   10.1  1019.9  0.00  0.00   0.020   0.000   24.4    50   13.3   24.4   9.23  .0735    115    1    100.0    5 
15/11/18  18:25   12.6   12.6   12.6    87   10.4   9.0     E   0.75  13.0   ESE   10.7   12.6   10.7  1019.9  0.00  0.00   0.020   0.000   24.4    50   13.3   24.4   9.23  .0735    117    1    100.0    5 
15/11/18  18:30   12.6   12.6   12.6    86   10.3   8.0     E   0.67  13.0   ESE   11.1   12.5   11.1  1020.1  0.00  0.00   0.020   0.000   24.4    50   13.3   24.4   9.23  .0735    115    1    100.0    5 
15/11/18  18:35   12.6   12.6   12.6    86   10.3   7.0     E   0.58  11.0     E   11.5   12.5   11.4  1020.2  0.00  0.00   0.020   0.000   24.4    50   13.3   24.4   9.23  .0735    116    1    100.0    5 
15/11/18  18:40   12.6   12.6   12.5    86   10.3   8.0     E   0.67  12.0     E   11.1   12.5   11.1  1020.2  0.00  0.00   0.020   0.000   24.4    50   13.3   24.4   9.23  .0735    117    1    100.0    5 
15/11/18  18:45   12.5   12.6   12.5    86   10.2   9.0     E   0.75  13.0   ESE   10.7   12.4   10.6  1020.2  0.00  0.00   0.020   0.000   24.4    50   13.3   24.4   9.23  .0735    116    1    100.0    5 
15/11/18  18:50   12.5   12.6   12.5    86   10.2   8.0   ESE   0.67  12.0   ESE   11.1   12.4   11.0  1020.3  0.00  0.00   0.020   0.000   24.4    50   13.3   24.4   9.23  .0735    116    1    100.0    5 
15/11/18  18:55   12.5   12.5   12.5    87   10.4   8.0     E   0.67  14.0   ESE   11.1   12.5   11.1  1020.3  0.00  0.00   0.020   0.000   24.4    50   13.3   24.4   9.23  .0735    117    1    100.0    5 
15/11/18  19:00   12.5   12.6   12.5    87   10.4   9.0   ESE   0.75  12.0   ESE   10.7   12.5   10.7  1020.3  0.00  0.00   0.020   0.000   24.3    50   13.2   24.3   9.23  .0735    116    1    100.0    5 
15/11/18  19:05   12.5   12.6   12.5    87   10.4  10.0   ESE   0.83  13.0   ESE   10.3   12.5   10.3  1020.3  0.00  0.00   0.020   0.000   24.3    50   13.2   24.3   9.23  .0735    116    1    100.0    5 
15/11/18  19:10   12.5   12.5   12.5    87   10.4  10.0   ESE   0.83  14.0   ESE   10.3   12.5   10.3  1020.3  0.00  0.00   0.020   0.000   24.3    50   13.2   24.3   9.23  .0735    117    1    100.0    5 
15/11/18  19:15   12.5   12.6   12.5    87   10.4  10.0   ESE   0.83  13.0   ESE   10.3   12.5   10.3  1020.2  0.00  0.00   0.020   0.000   24.3    50   13.2   24.3   9.23  .0735    115    1    100.0    5 
15/11/18  19:20   12.5   12.5   12.5    87   10.4   8.0   ESE   0.67  12.0   ESE   11.1   12.5   11.1  1020.3  0.00  0.00   0.020   0.000   24.4    51   13.6   24.4   9.35  .0735    117    1    100.0    5 
15/11/18  19:25   12.4   12.5   12.4    87   10.3   7.0     E   0.58  12.0     E   11.4   12.4   11.4  1020.2  0.00  0.00   0.020   0.000   24.4    51   13.6   24.4   9.35  .0735    117    1    100.0    5 
15/11/18  19:30   12.4   12.5   12.4    87   10.3   8.0     E   0.67  13.0     E   11.0   12.4   11.0  1020.2  0.00  0.00   0.020   0.000   24.4    51   13.6   24.5   9.35  .0735    116    1    100.0    5 
15/11/18  19:35   12.4   12.4   12.4    87   10.3   7.0     E   0.58  11.0     E   11.3   12.4   11.3  1020.2  0.00  0.00   0.021   0.000   24.5    51   13.7   24.5   9.35  .0734    117    1    100.0    5 
15/11/18  19:40   12.4   12.4   12.4    87   10.3   7.0     E   0.58  11.0     E   11.3   12.4   11.3  1020.1  0.00  0.00   0.021   0.000   24.6    51   13.8   24.6   9.35  .0734    116    1    100.0    5 
15/11/18  19:45   12.4   12.4   12.4    87   10.3   8.0     E   0.67  14.0     E   10.9   12.4   10.9  1020.0  0.00  0.00   0.021   0.000   24.7    51   13.9   24.7   9.35  .0734    118    1    100.0    5 
15/11/18  19:50   12.4   12.4   12.4    87   10.3  10.0   ESE   0.83  14.0   ESE   10.2   12.4   10.2  1020.1  0.00  0.00   0.021   0.000   24.7    51   13.9   24.7   9.35  .0734    117    1    100.0    5 
15/11/18  19:55   12.4   12.4   12.4    87   10.3  10.0   ESE   0.83  14.0   ESE   10.2   12.4   10.2  1020.0  0.00  0.00   0.021   0.000   24.8    51   14.0   24.8   9.35  .0733    117    1    100.0    5 
15/11/18  20:00   12.4   12.4   12.4    87   10.3   9.0   ESE   0.75  14.0   ESE   10.6   12.4   10.6  1020.0  0.00  0.00   0.021   0.000   24.8    51   14.0   24.8   9.35  .0733    116    1    100.0    5 
15/11/18  20:05   12.4   12.4   12.4    87   10.3   8.0     E   0.67  13.0   ESE   10.9   12.4   10.9  1020.1  0.00  0.00   0.021   0.000   24.9    51   14.1   24.8   9.35  .0733    115    1    100.0    5 
15/11/18  20:10   12.4   12.4   12.3    87   10.3   8.0   ESE   0.67  12.0   ESE   10.9   12.4   10.9  1020.0  0.00  0.00   0.021   0.000   25.0    51   14.2   24.9   9.35  .0733    117    1    100.0    5 
15/11/18  20:15   12.3   12.4   12.3    87   10.2   9.0     E   0.75  14.0   ESE   10.4   12.3   10.4  1020.1  0.00  0.00   0.021   0.000   25.1    51   14.2   25.0   9.35  .0733    116    1    100.0    5 
15/11/18  20:20   12.3   12.3   12.3    87   10.2  10.0     E   0.83  14.0   ESE   10.1   12.3   10.1  1020.1  0.00  0.00   0.021   0.000   25.1    51   14.3   25.1   9.35  .0732    116    1    100.0    5 
15/11/18  20:25   12.3   12.4   12.3    87   10.2  10.0   ESE   0.83  14.0     E   10.1   12.3   10.1  1020.1  0.00  0.00   0.021   0.000   25.2    51   14.3   25.2   9.35  .0732    117    1    100.0    5 
15/11/18  20:30   12.3   12.3   12.3    87   10.2  12.0   ESE   1.00  15.0   ESE    9.5   12.3    9.5  1020.1  0.00  0.00   0.021   0.000   25.2    51   14.4   25.2   9.35  .0732    117    1    100.0    5 
15/11/18  20:35   12.3   12.3   12.3    87   10.2   8.0     E   0.67  15.0   ESE   10.8   12.3   10.8  1020.2  0.00  0.00   0.021   0.000   25.3    51   14.4   25.3   9.35  .0732    117    1    100.0    5 
15/11/18  20:40   12.3   12.3   12.3    87   10.2   8.0   ESE   0.67  15.0   ESE   10.8   12.3   10.8  1020.4  0.00  0.00   0.021   0.000   25.3    51   14.5   25.3   9.35  .0732    116    1    100.0    5 
15/11/18  20:45   12.3   12.3   12.3    87   10.2   8.0     E   0.67  11.0   ESE   10.8   12.3   10.8  1020.3  0.00  0.00   0.021   0.000   25.4    51   14.5   25.4   9.35  .0732    117    1    100.0    5 
15/11/18  20:50   12.3   12.3   12.3    87   10.2  10.0     E   0.83  14.0   ESE   10.1   12.3   10.1  1020.4  0.00  0.00   0.021   0.000   25.4    51   14.6   25.5   9.35  .0731    118    1    100.0    5 
15/11/18  20:55   12.3   12.3   12.3    87   10.2  11.0   ESE   0.92  14.0   ESE    9.7   12.3    9.7  1020.3  0.00  0.00   0.021   0.000   25.5    51   14.6   25.6   9.35  .0731    117    1    100.0    5 
15/11/18  21:00   12.3   12.3   12.3    87   10.2  11.0   ESE   0.92  16.0   ESE    9.7   12.3    9.7  1020.3  0.00  0.00   0.021   0.000   25.6    51   14.7   25.6   9.35  .0731    117    1    100.0    5 
15/11/18  21:05   12.3   12.3   12.3    87   10.2  12.0   ESE   1.00  16.0     E    9.4   12.3    9.4  1020.4  0.00  0.00   0.021   0.000   25.6    51   14.7   25.7   9.35  .0731    116    1    100.0    5 
15/11/18  21:10   12.3   12.3   12.3    87   10.2  11.0   ESE   0.92  14.0   ESE    9.7   12.3    9.7  1020.5  0.00  0.00   0.021   0.000   25.7    51   14.8   25.7   9.35  .0731    117    1    100.0    5 
15/11/18  21:15   12.3   12.3   12.3    87   10.2  11.0   ESE   0.92  13.0   ESE    9.7   12.3    9.7  1020.5  0.00  0.00   0.021   0.000   25.7    50   14.5   25.8   9.18  .0731    116    1    100.0    5 
15/11/18  21:20   12.3   12.3   12.3    87   10.2  10.0   ESE   0.83  12.0   ESE   10.1   12.3   10.1  1020.5  0.00  0.00   0.021   0.000   25.7    50   14.5   25.8   9.18  .0731    116    1    100.0    5 
15/11/18  21:25   12.3   12.3   12.3    87   10.2  10.0   ESE   0.83  13.0   ESE   10.1   12.3   10.1  1020.6  0.00  0.00   0.021   0.000   25.7    50   14.5   25.8   9.18  .0731    116    1    100.0    5 
15/11/18  21:30   12.3   12.3   12.3    87   10.2  10.0   ESE   0.83  13.0   ESE   10.1   12.3   10.1  1020.6  0.00  0.00   0.021   0.000   25.7    50   14.5   25.8   9.18  .0731    116    1    100.0    5 
15/11/18  21:35   12.3   12.3   12.3    87   10.2  11.0   ESE   0.92  13.0   ESE    9.7   12.3    9.7  1020.7  0.00  0.00   0.021   0.000   25.7    50   14.5   25.8   9.18  .0731    115    1    100.0    5 
15/11/18  21:40   12.3   12.3   12.3    87   10.2  10.0   ESE   0.83  12.0   ESE   10.1   12.3   10.1  1020.7  0.00  0.00   0.021   0.000   25.8    49   14.3   25.8   8.98  .0731    116    1    100.0    5 
15/11/18  21:45   12.3   12.3   12.3    87   10.2   9.0   ESE   0.75  12.0   ESE   10.4   12.3   10.4  1020.8  0.00  0.00   0.021   0.000   25.8    49   14.3   25.8   8.98  .0731    116    1    100.0    5 
15/11/18  21:50   12.3   12.3   12.2    87   10.2   9.0   ESE   0.75  12.0   ESE   10.4   12.3   10.4  1020.8  0.00  0.00   0.021   0.000   25.8    49   14.3   25.8   8.98  .0731    118    1    100.0    5 
15/11/18  21:55   12.3   12.3   12.3    87   10.2   8.0   ESE   0.67  11.0   ESE   10.8   12.3   10.8  1020.9  0.00  0.00   0.021   0.000   25.7    49   14.2   25.7   8.98  .0731    116    1    100.0    5 
15/11/18  22:00   12.3   12.3   12.3    87   10.2  10.0   ESE   0.83  12.0   ESE   10.1   12.3   10.1  1021.0  0.00  0.00   0.021   0.000   25.7    49   14.2   25.7   8.98  .0732    117    1    100.0    5 
15/11/18  22:05   12.2   12.3   12.2    87   10.1   9.0   ESE   0.75  11.0   ESE   10.3   12.2   10.3  1021.0  0.00  0.00   0.021   0.000   25.7    49   14.2   25.7   8.98  .0732    115    1    100.0    5 
15/11/18  22:10   12.2   12.2   12.2    87   10.1   9.0   ESE   0.75  12.0   ESE   10.3   12.2   10.3  1021.0  0.00  0.00   0.021   0.000   25.8    49   14.3   25.8   8.98  .0731    117    1    100.0    5 
15/11/18  22:15   12.2   12.2   12.2    87   10.1   9.0   ESE   0.75  11.0   ESE   10.3   12.2   10.3  1021.0  0.00  0.00   0.021   0.000   25.8    49   14.3   25.8   8.98  .0731    117    1    100.0    5 
15/11/18  22:20   12.2   12.2   12.2    87   10.1   9.0   ESE   0.75  12.0   ESE   10.3   12.2   10.3  1020.9  0.00  0.00   0.021   0.000   25.8    49   14.3   25.8   8.98  .0731    117    1    100.0    5 
15/11/18  22:25   12.2   12.2   12.2    87   10.1   9.0   ESE   0.75  10.0   ESE   10.3   12.2   10.3  1020.9  0.00  0.00   0.021   0.000   25.9    49   14.4   25.9   8.98  .0731    116    1    100.0    5 
15/11/18  22:30   12.2   12.2   12.2    87   10.1   9.0   ESE   0.75  11.0   ESE   10.3   12.2   10.3  1021.0  0.00  0.00   0.021   0.000   25.9    49   14.4   25.9   8.98  .0731    116    1    100.0    5 
15/11/18  22:35   12.2   12.2   12.2    87   10.1   7.0   ESE   0.58  10.0   ESE   11.1   12.2   11.1  1021.1  0.00  0.00   0.021   0.000   25.9    49   14.4   25.9   8.98  .0731    117    1    100.0    5 
15/11/18  22:40   12.2   12.2   12.2    87   10.1   7.0   ESE   0.58   9.0   ESE   11.1   12.2   11.1  1021.1  0.00  0.00   0.021   0.000   25.9    49   14.4   25.9   8.98  .0731    117    1    100.0    5 
15/11/18  22:45   12.1   12.2   12.1    87   10.0   7.0   ESE   0.58   9.0   ESE   11.0   12.1   11.0  1021.1  0.00  0.00   0.022   0.000   25.9    49   14.4   25.9   8.98  .0731    117    1    100.0    5 
15/11/18  22:50   12.2   12.2   12.1    87   10.1   5.0   ESE   0.42   7.0   ESE   11.6   12.2   11.6  1021.2  0.00  0.00   0.021   0.000   25.9    49   14.4   25.9   8.98  .0731    117    1    100.0    5 
15/11/18  22:55   12.2   12.2   12.1    87   10.1   6.0   ESE   0.50   8.0   ESE   11.3   12.2   11.3  1021.2  0.00  0.00   0.021   0.000   25.9    49   14.4   25.9   8.98  .0731    117    1    100.0    5 
15/11/18  23:00   12.2   12.2   12.2    87   10.1   6.0   ESE   0.50   8.0   ESE   11.3   12.2   11.3  1021.1  0.00  0.00   0.021   0.000   25.9    49   14.4   25.9   8.98  .0731    115    1    100.0    5 
15/11/18  23:05   12.2   12.2   12.2    87   10.1   6.0   ESE   0.50   8.0   ESE   11.3   12.2   11.3  1021.2  0.00  0.00   0.021   0.000   25.9    49   14.4   25.9   8.98  .0731    115    1    100.0    5 
15/11/18  23:10   12.2   12.2   12.2    87   10.1   5.0   ESE   0.42   8.0   ESE   11.6   12.2   11.6  1021.4  0.00  0.00   0.021   0.000   25.9    49   14.4   25.9   8.98  .0731    116    1    100.0    5 
15/11/18  23:15   12.2   12.2   12.2    87   10.1   5.0   ESE   0.42   7.0   ESE   11.6   12.2   11.6  1021.4  0.00  0.00   0.021   0.000   25.9    49   14.4   25.9   8.98  .0731    117    1    100.0    5 
15/11/18  23:20   12.3   12.3   12.2    87   10.2   5.0   ESE   0.42   7.0   ESE   11.7   12.3   11.7  1021.4  0.00  0.00   0.021   0.000   25.8    49   14.3   25.8   8.98  .0732    117    1    100.0    5 
15/11/18  23:25   12.2   12.3   12.2    87   10.1   6.0   ESE   0.50   7.0   ESE   11.3   12.2   11.3  1021.5  0.00  0.00   0.021   0.000   25.8    49   14.3   25.8   8.98  .0732    116    1    100.0    5 
15/11/18  23:30   12.3   12.3   12.3    87   10.2   5.0   ESE   0.42   8.0   ESE   11.7   12.3   11.7  1021.5  0.00  0.00   0.021   0.000   25.8    49   14.3   25.8   8.98  .0732    117    1    100.0    5 
15/11/18  23:35   12.3   12.3   12.3    87   10.2   6.0   ESE   0.50   7.0   ESE   11.4   12.3   11.4  1021.5  0.00  0.00   0.021   0.000   25.8    49   14.3   25.8   8.98  .0732    117    1    100.0    5 
15/11/18  23:40   12.3   12.3   12.3    87   10.2   6.0   ESE   0.50   7.0   ESE   11.4   12.3   11.4  1021.4  0.00  0.00   0.021   0.000   25.8    49   14.3   25.8   8.98  .0732    117    1    100.0    5 
15/11/18  23:45   12.3   12.3   12.3    87   10.2   6.0   ESE   0.50   8.0   ESE   11.4   12.3   11.4  1021.5  0.00  0.00   0.021   0.000   25.8    49   14.3   25.8   8.98  .0732    117    1    100.0    5 
15/11/18  23:50   12.3   12.3   12.3    87   10.2   6.0   ESE   0.50   8.0   ESE   11.4   12.3   11.4  1021.5  0.00  0.00   0.021   0.000   25.8    49   14.3   25.8   8.98  .0732    117    1    100.0    5 
15/11/18  23:55   12.3   12.3   12.3    87   10.2   6.0   ESE   0.50   7.0   ESE   11.4   12.3   11.4  1021.4  0.00  0.00   0.021   0.000   25.9    49   14.4   25.9   8.98  .0731    117    1    100.0    5 
16/11/18  00:00   12.3   12.3   12.3    87   10.2   5.0   ESE   0.42   6.0   ESE   11.7   12.3   11.7  1021.4  0.00  0.00   0.021   0.000   25.9    49   14.4   25.9   8.98  .0731    116    1    100.0    5 
16/11/18   0:05   12.3   12.3   12.3    87   10.2   3.0   ESE   0.25   4.0   ESE   12.3   12.3   12.3  1021.5  0.00  0.00   0.021   0.000   25.9    49   14.4   25.9   8.98  .0731    114    1    100.0    5 
16/11/18   0:10   12.3   12.3   12.3    87   10.2   4.0   ESE   0.33   6.0   ESE   12.1   12.3   12.1  1021.4  0.00  0.00   0.021   0.000   26.0    49   14.5   26.1   8.97  .0731    114    1    100.0    5 
16/11/18   0:15   12.3   12.3   12.3    87   10.2   5.0   ESE   0.42   7.0   ESE   11.7   12.3   11.7  1021.3  0.00  0.00   0.021   0.000   26.0    49   14.5   26.1   8.97  .0731    116    1    100.0    5 
16/11/18   0:20   12.3   12.3   12.3    87   10.2   5.0   ESE   0.42   7.0   ESE   11.7   12.3   11.7  1021.4  0.00  0.00   0.021   0.000   26.0    49   14.5   26.1   8.97  .0731    118    1    100.0    5 
16/11/18   0:25   12.4   12.4   12.3    87   10.3   4.0   ESE   0.33   6.0   ESE   12.1   12.4   12.1  1021.5  0.00  0.00   0.021   0.000   26.1    48   14.2   26.1   8.87  .0731    117    1    100.0    5 
16/11/18   0:30   12.4   12.4   12.3    87   10.3   3.0   ESE   0.25   5.0   ESE   12.4   12.4   12.4  1021.6  0.00  0.00   0.021   0.000   26.1    48   14.2   26.1   8.87  .0731    117    1    100.0    5 
16/11/18   0:35   12.4   12.4   12.4    87   10.3   4.0   ESE   0.33   6.0   ESE   12.1   12.4   12.1  1021.6  0.00  0.00   0.021   0.000   26.1    48   14.2   26.1   8.87  .0731    117    1    100.0    5 
16/11/18   0:40   12.4   12.4   12.4    87   10.3   3.0   ESE   0.25   6.0   ESE   12.4   12.4   12.4  1021.6  0.00  0.00   0.021   0.000   26.0    48   14.1   26.0   8.87  .0731    117    1    100.0    5 
16/11/18   0:45   12.4   12.4   12.4    87   10.3   4.0   ESE   0.33   6.0   ESE   12.1   12.4   12.1  1021.5  0.00  0.00   0.021   0.000   26.0    48   14.1   26.0   8.87  .0731    117    1    100.0    5 
16/11/18   0:50   12.4   12.4   12.4    87   10.3   4.0   ESE   0.33   6.0   ESE   12.2   12.4   12.2  1021.5  0.00  0.00   0.020   0.000   25.9    48   14.1   25.9   8.88  .0731    116    1    100.0    5 
16/11/18   0:55   12.4   12.4   12.4    87   10.3   2.0   ESE   0.17   5.0   ESE   12.4   12.4   12.4  1021.6  0.00  0.00   0.020   0.000   25.9    48   14.1   25.9   8.88  .0732    117    1    100.0    5 
16/11/18   1:00   12.4   12.4   12.4    87   10.3   1.0   ESE   0.08   3.0   ESE   12.4   12.4   12.4  1021.6  0.00  0.00   0.020   0.000   25.9    48   14.0   25.8   8.88  .0732    116    1    100.0    5 
16/11/18   1:05   12.4   12.4   12.4    87   10.3   0.0   ESE   0.00   2.0   ESE   12.4   12.4   12.4  1021.7  0.00  0.00   0.020   0.000   25.9    48   14.0   25.8   8.88  .0732    116    1    100.0    5 
16/11/18   1:10   12.4   12.4   12.4    87   10.3   2.0   ESE   0.17   4.0   ESE   12.4   12.4   12.4  1021.6  0.00  0.00   0.020   0.000   25.8    48   14.0   25.8   8.88  .0732    116    1    100.0    5 
16/11/18   1:15   12.4   12.5   12.4    87   10.3   4.0   ESE   0.33   6.0   ESE   12.2   12.4   12.2  1021.5  0.00  0.00   0.020   0.000   25.8    48   14.0   25.8   8.88  .0732    117    1    100.0    5 
16/11/18   1:20   12.5   12.5   12.4    87   10.4   4.0   ESE   0.33   7.0   ESE   12.3   12.5   12.3  1021.4  0.00  0.00   0.020   0.000   25.8    49   14.3   25.8   8.98  .0731    117    1    100.0    5 
16/11/18   1:25   12.5   12.5   12.4    87   10.4   3.0   ESE   0.25   6.0   ESE   12.5   12.5   12.5  1021.4  0.00  0.00   0.020   0.000   25.9    49   14.4   25.9   8.98  .0731    117    1    100.0    5 
16/11/18   1:30   12.5   12.5   12.4    87   10.4   3.0   ESE   0.25   6.0   ESE   12.5   12.5   12.5  1021.4  0.00  0.00   0.020   0.000   25.9    49   14.4   25.9   8.98  .0731    116    1    100.0    5 
16/11/18   1:35   12.4   12.5   12.4    87   10.3   1.0   ESE   0.08   3.0   ESE   12.4   12.4   12.4  1021.5  0.00  0.00   0.020   0.000   25.9    49   14.4   25.9   8.98  .0731    116    1    100.0    5 
16/11/18   1:40   12.4   12.4   12.4    87   10.3   0.0   ESE   0.00   2.0   ESE   12.4   12.4   12.4  1021.5  0.00  0.00   0.020   0.000   26.0    49   14.5   26.1   8.97  .0731    116    1    100.0    5 
16/11/18   1:45   12.4   12.5   12.4    87   10.3   1.0   ESE   0.08   3.0   ESE   12.4   12.4   12.4  1021.6  0.00  0.00   0.020   0.000   26.0    49   14.5   26.1   8.97  .0731    117    1    100.0    5 
16/11/18   1:50   12.5   12.5   12.4    87   10.4   0.0   ESE   0.00   2.0   ESE   12.5   12.5   12.5  1021.5  0.00  0.00   0.020   0.000   26.1    49   14.5   26.1   8.97  .0731    117    1    100.0    5 
16/11/18   1:55   12.5   12.5   12.5    87   10.4   0.0   ESE   0.00   1.0   ESE   12.5   12.5   12.5  1021.6  0.00  0.00   0.020   0.000   26.1    49   14.5   26.1   8.97  .0731    116    1    100.0    5 
16/11/18   2:00   12.5   12.5   12.5    87   10.4   1.0   ESE   0.08   3.0   ESE   12.5   12.5   12.5  1021.7  0.00  0.00   0.020   0.000   26.1    49   14.5   26.1   8.97  .0731    116    1    100.0    5 
16/11/18   2:05   12.5   12.5   12.5    87   10.4   1.0   ESE   0.08   3.0   ESE   12.5   12.5   12.5  1021.7  0.00  0.00   0.020   0.000   26.1    48   14.2   26.1   8.87  .0731    115    1    100.0    5 
16/11/18   2:10   12.5   12.5   12.5    87   10.4   2.0   ESE   0.17   4.0   ESE   12.5   12.5   12.5  1021.6  0.00  0.00   0.020   0.000   26.1    48   14.2   26.1   8.87  .0731    116    1    100.0    5 
16/11/18   2:15   12.5   12.6   12.5    87   10.4   2.0   ESE   0.17   4.0   ESE   12.5   12.5   12.5  1021.6  0.00  0.00   0.020   0.000   26.1    48   14.2   26.1   8.87  .0731    116    1    100.0    5 
16/11/18   2:20   12.5   12.6   12.5    87   10.4   4.0   ESE   0.33   7.0   ESE   12.3   12.5   12.3  1021.6  0.00  0.00   0.020   0.000   26.1    48   14.2   26.1   8.87  .0731    117    1    100.0    5 
16/11/18   2:25   12.5   12.5   12.5    87   10.4   3.0   ESE   0.25   6.0   ESE   12.5   12.5   12.5  1021.7  0.00  0.00   0.020   0.000   26.1    48   14.2   26.1   8.87  .0731    116    1    100.0    5 
16/11/18   2:30   12.5   12.5   12.5    87   10.4   4.0   ESE   0.33   6.0   ESE   12.3   12.5   12.3  1021.8  0.00  0.00   0.020   0.000   26.0    48   14.1   26.0   8.87  .0731    118    1    100.0    5 
16/11/18   2:35   12.5   12.5   12.5    87   10.4   2.0   ESE   0.17   4.0   ESE   12.5   12.5   12.5  1021.9  0.00  0.00   0.020   0.000   26.0    48   14.1   26.0   8.87  .0732    115    1    100.0    5 
16/11/18   2:40   12.5   12.5   12.5    87   10.4   1.0   ESE   0.08   3.0   ESE   12.5   12.5   12.5  1021.8  0.00  0.00   0.020   0.000   26.0    48   14.1   26.0   8.87  .0732    117    1    100.0    5 
16/11/18   2:45   12.5   12.5   12.5    87   10.4   0.0   ESE   0.00   1.0   ESE   12.5   12.5   12.5  1021.9  0.00  0.00   0.020   0.000   25.9    48   14.1   25.9   8.88  .0732    117    1    100.0    5 
16/11/18   2:50   12.5   12.5   12.5    87   10.4   0.0   ESE   0.00   3.0   ESE   12.5   12.5   12.5  1021.8  0.00  0.00   0.020   0.000   25.9    48   14.1   25.9   8.88  .0732    116    1    100.0    5 
16/11/18   2:55   12.5   12.5   12.5    87   10.4   1.0   ESE   0.08   2.0   ESE   12.5   12.5   12.5  1021.9  0.00  0.00   0.020   0.000   25.9    48   14.0   25.8   8.88  .0732    114    1    100.0    5 
16/11/18   3:00   12.6   12.6   12.5    87   10.4   1.0   ESE   0.08   3.0   ESE   12.6   12.6   12.6  1021.9  0.00  0.00   0.020   0.000   25.9    48   14.1   25.9   8.88  .0732    117    1    100.0    5 
16/11/18   3:05   12.6   12.6   12.5    87   10.4   0.0   ESE   0.00   2.0   ESE   12.6   12.6   12.6  1022.0  0.00  0.00   0.020   0.000   26.0    49   14.5   26.1   8.97  .0731    117    1    100.0    5 
16/11/18   3:10   12.5   12.6   12.5    87   10.4   1.0   ESE   0.08   2.0   ESE   12.5   12.5   12.5  1021.9  0.00  0.00   0.020   0.000   26.0    49   14.5   26.1   8.97  .0731    117    1    100.0    5 
16/11/18   3:15   12.6   12.6   12.5    87   10.4   1.0   ESE   0.08   3.0   ESE   12.6   12.6   12.6  1022.0  0.00  0.00   0.020   0.000   26.1    49   14.5   26.1   8.97  .0731    116    1    100.0    5 
16/11/18   3:20   12.6   12.6   12.5    87   10.4   1.0   ESE   0.08   3.0   ESE   12.6   12.6   12.6  1022.0  0.00  0.00   0.020   0.000   26.1    49   14.6   26.2   8.97  .0731    115    1    100.0    5 
16/11/18   3:25   12.5   12.6   12.5    87   10.4   1.0   ESE   0.08   4.0   ESE   12.5   12.5   12.5  1022.0  0.00  0.00   0.020   0.000   26.1    49   14.6   26.2   8.97  .0731    117    1    100.0    5 
16/11/18   3:30   12.6   12.6   12.6    87   10.4   1.0   ESE   0.08   3.0   ESE   12.6   12.6   12.6  1022.0  0.00  0.00   0.020   0.000   26.1    48   14.2   26.1   8.87  .0731    115    1    100.0    5 
16/11/18   3:35   12.6   12.6   12.5    87   10.4   2.0   ESE   0.17   4.0   ESE   12.6   12.6   12.6  1022.0  0.00  0.00   0.020   0.000   26.1    48   14.2   26.1   8.87  .0731    118    1    100.0    5 
16/11/18   3:40   12.6   12.6   12.5    87   10.4   2.0   ESE   0.17   5.0   ESE   12.6   12.6   12.6  1021.9  0.00  0.00   0.020   0.000   26.2    48   14.3   26.2   8.87  .0731    117    1    100.0    5 
16/11/18   3:45   12.5   12.6   12.5    87   10.4   2.0   ESE   0.17   5.0   ESE   12.5   12.5   12.5  1022.0  0.00  0.00   0.020   0.000   26.1    48   14.2   26.1   8.87  .0731    117    1    100.0    5 
16/11/18   3:50   12.5   12.5   12.5    87   10.4   2.0   ESE   0.17   5.0   ESE   12.5   12.5   12.5  1021.9  0.00  0.00   0.020   0.000   26.1    48   14.2   26.1   8.87  .0731    115    1    100.0    5 
16/11/18   3:55   12.5   12.5   12.5    87   10.4   2.0   ESE   0.17   5.0   ESE   12.5   12.5   12.5  1022.0  0.00  0.00   0.020   0.000   26.2    48   14.3   26.2   8.87  .0731    117    1    100.0    5 
16/11/18   4:00   12.4   12.5   12.4    87   10.3   2.0   ESE   0.17   4.0   ESE   12.4   12.4   12.4  1022.0  0.00  0.00   0.020   0.000   26.2    48   14.3   26.2   8.87  .0731    116    1    100.0    5 
16/11/18   4:05   12.4   12.4   12.4    87   10.3   2.0   ESE   0.17   4.0   ESE   12.4   12.4   12.4  1022.0  0.00  0.00   0.020   0.000   26.2    47   14.0   26.2   8.67  .0731    117    1    100.0    5 
16/11/18   4:10   12.4   12.4   12.4    87   10.3   2.0   ESE   0.17   4.0   ESE   12.4   12.4   12.4  1022.0  0.00  0.00   0.020   0.000   26.2    47   14.0   26.1   8.67  .0731    117    1    100.0    5 
16/11/18   4:15   12.4   12.4   12.4    87   10.3   2.0   ESE   0.17   5.0   ESE   12.4   12.4   12.4  1022.0  0.00  0.00   0.020   0.000   26.1    47   13.9   26.1   8.67  .0732    117    1    100.0    5 
16/11/18   4:20   12.4   12.4   12.4    87   10.3   3.0   ESE   0.25   6.0   ESE   12.4   12.4   12.4  1022.0  0.00  0.00   0.020   0.000   26.1    47   13.9   26.1   8.67  .0732    117    1    100.0    5 
16/11/18   4:25   12.4   12.4   12.4    87   10.3   3.0   ESE   0.25   6.0   ESE   12.4   12.4   12.4  1022.0  0.00  0.00   0.020   0.000   26.1    48   14.2   26.1   8.87  .0731    117    1    100.0    5 
16/11/18   4:30   12.4   12.4   12.4    87   10.3   3.0   ESE   0.25   7.0   ESE   12.4   12.4   12.4  1022.0  0.00  0.00   0.020   0.000   26.1    48   14.2   26.1   8.87  .0731    117    1    100.0    5 
16/11/18   4:35   12.4   12.4   12.4    87   10.3   3.0   ESE   0.25   6.0   ESE   12.4   12.4   12.4  1022.1  0.00  0.00   0.020   0.000   26.1    48   14.2   26.1   8.87  .0732    117    1    100.0    5 
16/11/18   4:40   12.4   12.4   12.4    87   10.3   2.0   ESE   0.17   5.0   ESE   12.4   12.4   12.4  1022.2  0.00  0.00   0.021   0.000   26.1    48   14.2   26.1   8.87  .0732    117    1    100.0    5 
16/11/18   4:45   12.4   12.4   12.4    87   10.3   3.0   ESE   0.25   7.0   ESE   12.4   12.4   12.4  1021.9  0.00  0.00   0.021   0.000   26.1    48   14.2   26.1   8.87  .0731    117    1    100.0    5 
16/11/18   4:50   12.4   12.4   12.4    87   10.3   3.0   ESE   0.25   6.0   ESE   12.4   12.4   12.4  1022.0  0.00  0.00   0.021   0.000   26.2    48   14.3   26.2   8.87  .0731    116    1    100.0    5 
16/11/18   4:55   12.4   12.4   12.4    87   10.3   4.0   ESE   0.33   7.0   ESE   12.1   12.4   12.1  1022.0  0.00  0.00   0.021   0.000   26.2    48   14.3   26.2   8.87  .0731    116    1    100.0    5 
16/11/18   5:00   12.3   12.4   12.3    87   10.2   6.0   ESE   0.50  10.0     E   11.4   12.3   11.4  1021.9  0.00  0.00   0.021   0.000   26.2    48   14.3   26.2   8.87  .0731    117    1    100.0    5 
16/11/18   5:05   12.3   12.4   12.3    88   10.4   5.0     E   0.42  10.0     E   11.7   12.3   11.7  1022.0  0.00  0.00   0.021   0.000   26.2    48   14.3   26.2   8.87  .0731    117    1    100.0    5 
16/11/18   5:10   12.3   12.3   12.3    88   10.4   4.0     E   0.33  10.0     E   12.1   12.3   12.1  1022.1  0.00  0.00   0.021   0.000   26.2    48   14.3   26.2   8.87  .0731    115    1    100.0    5 
16/11/18   5:15   12.3   12.3   12.3    87   10.2   4.0     E   0.33   8.0     E   12.0   12.3   12.0  1022.1  0.00  0.00   0.021   0.000   26.2    48   14.3   26.2   8.87  .0731    117    1    100.0    5 
16/11/18   5:20   12.3   12.3   12.3    87   10.2   3.0     E   0.25   7.0     E   12.3   12.3   12.3  1022.2  0.00  0.00   0.021   0.000   26.3    48   14.4   26.3   8.86  .0731    117    1    100.0    5 
16/11/18   5:25   12.2   12.3   12.2    87   10.1   3.0     E   0.25   8.0     E   12.2   12.2   12.2  1022.2  0.00  0.00   0.021   0.000   26.2    48   14.3   26.2   8.87  .0731    116    1    100.0    5 
16/11/18   5:30   12.2   12.2   12.2    87   10.1   4.0     E   0.33   8.0     E   11.9   12.2   11.9  1022.3  0.00  0.00   0.021   0.000   26.2    48   14.3   26.2   8.87  .0731    117    1    100.0    5 
16/11/18   5:35   12.2   12.2   12.2    87   10.1   4.0     E   0.33   9.0     E   11.9   12.2   11.9  1022.4  0.00  0.00   0.021   0.000   26.2    47   14.0   26.2   8.67  .0731    117    1    100.0    5 
16/11/18   5:40   12.2   12.2   12.2    87   10.1   3.0     E   0.25   7.0     E   12.2   12.2   12.2  1022.5  0.00  0.00   0.021   0.000   26.2    47   14.0   26.1   8.67  .0732    118    1    100.0    5 
16/11/18   5:45   12.2   12.2   12.2    87   10.1   3.0     E   0.25   7.0     E   12.2   12.2   12.2  1022.5  0.00  0.00   0.021   0.000   26.2    47   14.0   26.1   8.67  .0732    116    1    100.0    5 
16/11/18   5:50   12.2   12.2   12.2    88   10.2   4.0     E   0.33   8.0     E   11.9   12.2   11.9  1022.6  0.00  0.00   0.021   0.000   26.1    47   13.9   26.1   8.67  .0732    117    1    100.0    5 
16/11/18   5:55   12.1   12.2   12.1    88   10.2   4.0     E   0.33   9.0     E   11.8   12.1   11.8  1022.6  0.00  0.00   0.022   0.000   26.1    47   13.9   26.1   8.67  .0732    117    1    100.0    5 
16/11/18   6:00   12.1   12.1   12.1    88   10.2   4.0   ENE   0.33   8.0   ENE   11.8   12.1   11.8  1022.5  0.00  0.00   0.022   0.000   26.1    47   13.9   26.0   8.67  .0732    116    1    100.0    5 
16/11/18   6:05   12.1   12.1   12.1    88   10.2   5.0     E   0.42   8.0     E   11.5   12.1   11.5  1022.6  0.00  0.00   0.022   0.000   26.1    47   13.9   26.0   8.67  .0732    116    1    100.0    5 
16/11/18   6:10   12.1   12.1   12.1    88   10.1   4.0     E   0.33   8.0     E   11.7   12.1   11.7  1022.6  0.00  0.00   0.022   0.000   26.0    48   14.1   26.0   8.87  .0732    117    1    100.0    5 
16/11/18   6:15   12.1   12.1   12.1    88   10.1   5.0   ENE   0.42   9.0   ENE   11.4   12.1   11.4  1022.6  0.00  0.00   0.022   0.000   26.1    48   14.2   26.1   8.87  .0732    117    1    100.0    5 
16/11/18   6:20   12.1   12.1   12.1    88   10.1   6.0     E   0.50   9.0     E   11.1   12.1   11.1  1022.7  0.00  0.00   0.022   0.000   26.1    48   14.2   26.1   8.87  .0732    116    1    100.0    5 
16/11/18   6:25   12.1   12.1   12.1    88   10.1   4.0     E   0.33   9.0     E   11.7   12.1   11.7  1022.7  0.00  0.00   0.022   0.000   26.1    48   14.2   26.1   8.87  .0732    117    1    100.0    5 
16/11/18   6:30   12.0   12.1   12.0    88   10.1   5.0     E   0.42   9.0     E   11.3   12.0   11.3  1022.7  0.00  0.00   0.022   0.000   26.2    48   14.3   26.2   8.87  .0732    116    1    100.0    5 
16/11/18   6:35   12.0   12.0   12.0    88   10.1   5.0     E   0.42   9.0     E   11.3   12.0   11.3  1022.7  0.00  0.00   0.022   0.000   26.2    48   14.3   26.2   8.87  .0731    116    1    100.0    5 
16/11/18   6:40   11.9   12.0   11.9    88   10.0   3.0     E   0.25   8.0     E   11.9   11.9   11.9  1022.8  0.00  0.00   0.022   0.000   26.2    48   14.3   26.2   8.87  .0732    117    1    100.0    5 
16/11/18   6:45   11.9   11.9   11.9    88   10.0   3.0     E   0.25   8.0     E   11.9   11.9   11.9  1022.9  0.00  0.00   0.022   0.000   26.3    48   14.4   26.3   8.86  .0731    118    1    100.0    5 
16/11/18   6:50   11.9   11.9   11.9    88   10.0   2.0     E   0.17   7.0     E   11.9   11.9   11.9  1022.9  0.00  0.00   0.022   0.000   26.3    48   14.4   26.3   8.86  .0731    117    1    100.0    5 
16/11/18   6:55   11.9   11.9   11.9    88   10.0   4.0     E   0.33   9.0     E   11.6   11.9   11.6  1022.9  0.00  0.00   0.022   0.000   26.3    47   14.1   26.2   8.66  .0732    115    1    100.0    5 
16/11/18   7:00   11.9   11.9   11.9    88   10.0   4.0     E   0.33   9.0     E   11.6   11.9   11.6  1023.0  0.00  0.00   0.022   0.000   26.3    47   14.1   26.2   8.66  .0732    117    1    100.0    5 
16/11/18   7:05   11.9   11.9   11.9    88   10.0   6.0     E   0.50   9.0     E   11.0   11.9   11.0  1023.1  0.00  0.00   0.022   0.000   26.3    47   14.1   26.2   8.66  .0732    117    1    100.0    5 
16/11/18   7:10   11.9   11.9   11.9    88   10.0   5.0     E   0.42   8.0     E   11.2   11.9   11.2  1023.1  0.00  0.00   0.022   0.000   26.2    47   14.0   26.2   8.67  .0732    115    1    100.0    5 
16/11/18   7:15   11.9   11.9   11.9    88   10.0   6.0   ENE   0.50  10.0     E   10.9   11.9   10.9  1023.2  0.00  0.00   0.022   0.000   26.2    47   14.0   26.2   8.67  .0732    117    1    100.0    5 
16/11/18   7:20   11.8   11.9   11.8    88    9.9   3.0   ENE   0.25   7.0   ENE   11.8   11.8   11.8  1023.3  0.00  0.00   0.023   0.000   26.2    47   14.0   26.1   8.67  .0732    117    1    100.0    5 
16/11/18   7:25   11.8   11.8   11.8    88    9.9   2.0   ENE   0.17   7.0   ENE   11.8   11.8   11.8  1023.4  0.00  0.00   0.023   0.000   26.2    47   14.0   26.1   8.67  .0732    116    1    100.0    5 
16/11/18   7:30   11.8   11.8   11.8    88    9.9   2.0   ENE   0.17   8.0   ENE   11.8   11.8   11.8  1023.5  0.00  0.00   0.023   0.000   26.2    47   14.0   26.1   8.67  .0732    116    1    100.0    5 
16/11/18   7:35   11.8   11.8   11.8    88    9.9   2.0   ENE   0.17  10.0   ENE   11.8   11.8   11.8  1023.6  0.00  0.00   0.023   0.000   26.1    47   13.9   26.1   8.67  .0733    116    1    100.0    5 
16/11/18   7:40   11.8   11.8   11.8    88    9.9   4.0   ENE   0.33  10.0   ENE   11.4   11.8   11.4  1023.7  0.00  0.00   0.023   0.000   26.1    47   13.9   26.0   8.67  .0733    117    1    100.0    5 
16/11/18   7:45   11.8   11.8   11.8    88    9.9   5.0   ENE   0.42   9.0   ENE   11.1   11.8   11.1  1023.7  0.00  0.00   0.023   0.000   26.1    47   13.9   26.0   8.67  .0733    116    1    100.0    5 
16/11/18   7:50   11.7   11.8   11.7    88    9.8   3.0   ENE   0.25   9.0   ENE   11.7   11.7   11.7  1023.8  0.00  0.00   0.023   0.000   26.1    47   13.9   26.0   8.67  .0733    118    1    100.0    5 
16/11/18   7:55   11.7   11.7   11.7    88    9.8   5.0   ENE   0.42   8.0   ENE   11.0   11.7   11.0  1023.7  0.00  0.00   0.023   0.000   26.1    47   13.9   26.0   8.67  .0733    117    1    100.0    5 
16/11/18   8:00   11.7   11.7   11.7    88    9.7   4.0   ENE   0.33  10.0   ENE   11.3   11.7   11.3  1023.7  0.00  0.00   0.023   0.000   26.1    48   14.2   26.1   8.87  .0733    115    1    100.0    5 
16/11/18   8:05   11.7   11.7   11.7    88    9.8   4.0   ENE   0.33   8.0   ENE   11.3   11.7   11.3  1023.8  0.00  0.00   0.023   0.000   26.2    48   14.3   26.2   8.87  .0732    116    1    100.0    5 
16/11/18   8:10   11.7   11.7   11.7    88    9.7   4.0   ENE   0.33  10.0   ENE   11.3   11.7   11.3  1023.8  0.00  0.00   0.023   0.000   26.2    48   14.3   26.2   8.87  .0732    117    1    100.0    5 
16/11/18   8:15   11.7   11.7   11.7    88    9.7   6.0     E   0.50  10.0   ENE   10.7   11.7   10.7  1023.8  0.00  0.00   0.023   0.000   26.2    48   14.3   26.2   8.87  .0732    115    1    100.0    5 
16/11/18   8:20   11.7   11.7   11.7    88    9.7   4.0   ENE   0.33  10.0   ENE   11.3   11.7   11.3  1023.8  0.00  0.00   0.023   0.000   26.3    48   14.4   26.3   8.86  .0732    116    1    100.0    5 
16/11/18   8:25   11.6   11.7   11.6    88    9.7   4.0   ENE   0.33  10.0   ENE   11.2   11.6   11.2  1023.9  0.00  0.00   0.023   0.000   26.3    47   14.1   26.2   8.66  .0732    117    1    100.0    5 
16/11/18   8:30   11.6   11.7   11.6    88    9.7   4.0   ENE   0.33   8.0   ENE   11.2   11.6   11.2  1024.0  0.00  0.00   0.023   0.000   26.3    47   14.1   26.3   8.66  .0732    116    1    100.0    5 
16/11/18   8:35   11.6   11.6   11.6    88    9.7   6.0   ENE   0.50  11.0     E   10.6   11.6   10.6  1024.0  0.00  0.00   0.023   0.000   26.3    47   14.1   26.2   8.66  .0732    116    1    100.0    5 
16/11/18   8:40   11.6   11.6   11.6    88    9.6   5.0     E   0.42   9.0     E   10.8   11.6   10.8  1024.0  0.00  0.00   0.024   0.000   26.3    47   14.1   26.2   8.66  .0732    117    1    100.0    5 
16/11/18   8:45   11.6   11.6   11.6    88    9.6   4.0     E   0.33   7.0     E   11.2   11.6   11.2  1024.1  0.00  0.00   0.024   0.000   26.3    47   14.1   26.2   8.66  .0733    115    1    100.0    5 
16/11/18   8:50   11.6   11.6   11.6    88    9.6   5.0     E   0.42  10.0     E   10.8   11.6   10.8  1024.1  0.00  0.00   0.024   0.000   26.3    47   14.1   26.2   8.66  .0733    117    1    100.0    5 
16/11/18   8:55   11.6   11.6   11.6    88    9.6   6.0     E   0.50  11.0     E   10.6   11.6   10.6  1024.1  0.00  0.00   0.024   0.000   26.2    47   14.0   26.2   8.67  .0733    116    1    100.0    5 
16/11/18   9:00   11.6   11.6   11.6    88    9.7   6.0     E   0.50  10.0     E   10.6   11.6   10.6  1024.2  0.00  0.00   0.023   0.000   26.2    47   14.0   26.2   8.67  .0733    116    1    100.0    5 
16/11/18   9:05   11.6   11.6   11.6    88    9.6   2.0     E   0.17   5.0     E   11.6   11.6   11.6  1024.1  0.00  0.00   0.024   0.000   26.2    47   14.0   26.2   8.67  .0733    117    1    100.0    5 
16/11/18   9:10   11.6   11.6   11.6    88    9.6   4.0     E   0.33   9.0     E   11.2   11.6   11.2  1024.3  0.00  0.00   0.024   0.000   26.2    47   14.0   26.1   8.67  .0733    117    1    100.0    5 
16/11/18   9:15   11.6   11.6   11.6    88    9.6   3.0     E   0.25   8.0     E   11.6   11.6   11.6  1024.3  0.00  0.00   0.024   0.000   26.2    48   14.3   26.2   8.87  .0733    117    1    100.0    5 
16/11/18   9:20   11.6   11.6   11.6    88    9.7   5.0     E   0.42   9.0     E   10.9   11.6   10.9  1024.4  0.00  0.00   0.023   0.000   26.1    48   14.2   26.1   8.87  .0733    115    1    100.0    5 
16/11/18   9:25   11.6   11.6   11.6    88    9.6   3.0     E   0.25   7.0     E   11.6   11.6   11.6  1024.4  0.00  0.00   0.024   0.000   26.1    48   14.2   26.1   8.87  .0733    117    1    100.0    5 
16/11/18   9:30   11.6   11.6   11.6    88    9.6   0.0     E   0.00   3.0     E   11.6   11.6   11.6  1024.4  0.00  0.00   0.024   0.000   26.1    48   14.2   26.1   8.87  .0733    117    1    100.0    5 
16/11/18   9:35   11.6   11.6   11.6    88    9.7   3.0     E   0.25   9.0   ENE   11.6   11.6   11.6  1024.5  0.00  0.00   0.023   0.000   26.2    48   14.3   26.2   8.87  .0733    113    1     99.1    5 
16/11/18   9:40   11.6   11.6   11.6    88    9.6   3.0   ENE   0.25   9.0   ENE   11.6   11.6   11.6  1024.5  0.00  0.00   0.024   0.000   26.2    48   14.3   26.2   8.87  .0733    117    1    100.0    5 
16/11/18   9:45   11.6   11.6   11.6    88    9.6   4.0   ENE   0.33   7.0   ENE   11.2   11.6   11.2  1024.6  0.00  0.00   0.024   0.000   26.2    48   14.3   26.2   8.87  .0733    117    1    100.0    5 
16/11/18   9:50   11.6   11.6   11.6    88    9.6   3.0   ENE   0.25   8.0   ENE   11.6   11.6   11.6  1024.6  0.00  0.00   0.024   0.000   26.3    48   14.4   26.3   8.86  .0733    116    1    100.0    5 
16/11/18   9:55   11.6   11.6   11.6    88    9.6   3.0   ENE   0.25   8.0   ENE   11.6   11.6   11.6  1024.6  0.00  0.00   0.024   0.000   26.3    48   14.4   26.3   8.86  .0733    117    1    100.0    5 
16/11/18  10:00   11.6   11.6   11.6    88    9.6   3.0   ENE   0.25   9.0   ENE   11.6   11.6   11.6  1024.6  0.00  0.00   0.024   0.000   26.3    48   14.4   26.3   8.86  .0732    116    1    100.0    5 
16/11/18  10:05   11.6   11.6   11.6    88    9.6   2.0   ENE   0.17   7.0   ENE   11.6   11.6   11.6  1024.7  0.00  0.00   0.024   0.000   26.3    47   14.1   26.3   8.66  .0733    115    1    100.0    5 
16/11/18  10:10   11.6   11.6   11.6    88    9.6   2.0   ENE   0.17   7.0   ENE   11.6   11.6   11.6  1024.6  0.00  0.00   0.024   0.000   26.4    47   14.2   26.3   8.66  .0733    115    1    100.0    5 
16/11/18  10:15   11.6   11.6   11.6    88    9.7   2.0   ENE   0.17   8.0   ENE   11.6   11.6   11.6  1024.6  0.00  0.00   0.023   0.000   26.4    47   14.2   26.3   8.66  .0733    115    1    100.0    5 
16/11/18  10:20   11.6   11.6   11.6    88    9.7   2.0    NE   0.17   9.0    NE   11.6   11.6   11.6  1024.6  0.00  0.00   0.023   0.000   26.4    47   14.2   26.3   8.66  .0733    117    1    100.0    5 
16/11/18  10:25   11.7   11.7   11.6    88    9.7   4.0   ENE   0.33   8.0   ENE   11.3   11.7   11.3  1024.6  0.00  0.00   0.023   0.000   26.3    47   14.1   26.3   8.66  .0733    114    1    100.0    5 
16/11/18  10:30   11.7   11.7   11.6    88    9.7   3.0   ENE   0.25   9.0   ENE   11.7   11.7   11.7  1024.6  0.00  0.00   0.023   0.000   26.3    47   14.1   26.3   8.66  .0733    116    1    100.0    5 
16/11/18  10:35   11.7   11.7   11.7    88    9.7   3.0   ENE   0.25   8.0   ENE   11.7   11.7   11.7  1024.6  0.00  0.00   0.023   0.000   26.3    47   14.1   26.3   8.66  .0733    116    1    100.0    5 
16/11/18  10:40   11.7   11.7   11.7    88    9.7   2.0   ENE   0.17   7.0   ENE   11.7   11.7   11.7  1024.6  0.00  0.00   0.023   0.000   26.3    47   14.1   26.3   8.66  .0733    117    1    100.0    5 
16/11/18  10:45   11.7   11.7   11.7    88    9.8   2.0    NE   0.17   6.0   ENE   11.7   11.7   11.7  1024.6  0.00  0.00   0.023   0.000   26.3    47   14.1   26.2   8.66  .0733    117    1    100.0    5 
16/11/18  10:50   11.7   11.7   11.7    88    9.7   3.0    NE   0.25   8.0    NE   11.7   11.7   11.7  1024.6  0.00  0.00   0.023   0.000   26.3    47   14.1   26.2   8.66  .0733    116    1    100.0    5 
16/11/18  10:55   11.7   11.7   11.7    88    9.7   2.0    NE   0.17   8.0    NE   11.7   11.7   11.7  1024.6  0.00  0.00   0.023   0.000   26.2    47   14.0   26.2   8.67  .0733    116    1    100.0    5 
16/11/18  11:00   11.7   11.7   11.7    88    9.7   1.0    NE   0.08   5.0    NE   11.7   11.7   11.7  1024.6  0.00  0.00   0.023   0.000   26.2    47   14.0   26.2   8.67  .0733    118    1    100.0    5 
16/11/18  11:05   11.7   11.7   11.7    88    9.7   3.0   ENE   0.25   7.0   ENE   11.7   11.7   11.7  1024.6  0.00  0.00   0.023   0.000   26.2    47   14.0   26.2   8.67  .0733    117    1    100.0    5 
16/11/18  11:10   11.7   11.7   11.7    88    9.7   1.0   ENE   0.08   8.0   ENE   11.7   11.7   11.7  1024.6  0.00  0.00   0.023   0.000   26.3    47   14.1   26.2   8.66  .0733    116    1    100.0    5 
16/11/18  11:15   11.7   11.7   11.7    88    9.7   1.0   ENE   0.08   6.0   ENE   11.7   11.7   11.7  1024.5  0.00  0.00   0.023   0.000   26.3    47   14.1   26.3   8.66  .0733    116    1    100.0    5 
87758